Time,TemperatureF,DewpointF,PressureIn,WindDirection,WindDirectionDegrees,WindSpeedMPH,WindSpeedGustMPH,Humidity,HourlyPrecipIn,Conditions,Clouds,dailyrainin,SoftwareType,DateUTC
2013-02-24 00:00:00,43.2,42.1,29.89,SW,225,2.0,2.0,96,0.00,,---,0.00,VWS V14.01,2013-02-24 05:00:00,
2013-02-24 00:01:00,43.2,42.1,29.89,SW,225,1.0,2.0,96,0.00,,---,0.00,VWS V14.01,2013-02-24 05:01:00,
2013-02-24 00:02:00,43.2,42.1,29.89,WSW,248,0.0,2.0,96,0.00,,---,0.00,VWS V14.01,2013-02-24 05:02:00,
2013-02-24 00:03:00,43.2,42.1,29.89,SW,225,1.0,2.0,96,0.00,,---,0.00,VWS V14.01,2013-02-24 05:03:00,
2013-02-24 00:04:00,43.2,42.1,29.89,WSW,248,2.0,3.0,96,0.00,,---,0.00,VWS V14.01,2013-02-24 05:04:00,
2013-02-24 00:05:00,43.2,42.1,29.89,WSW,248,2.0,2.0,96,0.00,,---,0.00,VWS V14.01,2013-02-24 05:05:00,
2013-02-24 00:06:00,43.2,42.1,29.89,WNW,292,1.0,3.0,96,0.00,,---,0.00,VWS V14.01,2013-02-24 05:06:00,
2013-02-24 00:07:00,43.2,42.1,29.89,West,270,2.0,3.0,96,0.00,,---,0.00,VWS V14.01,2013-02-24 05:07:00,
2013-02-24 00:08:00,43.2,42.1,29.89,West,270,1.0,2.0,96,0.00,,---,0.00,VWS V14.01,2013-02-24 05:08:00,
2013-02-24 00:09:00,43.2,42.1,29.89,West,270,0.0,1.0,96,0.00,,---,0.00,VWS V14.01,2013-02-24 05:09:00,
2013-02-24 00:10:00,43.2,42.1,29.88,West,270,0.0,0.0,96,0.00,,---,0.00,VWS V14.01,2013-02-24 05:10:00,
2013-02-24 00:11:00,43.2,42.1,29.88,West,270,0.0,1.0,96,0.00,,---,0.00,VWS V14.01,2013-02-24 05:11:00,
2013-02-24 00:12:00,43.2,42.1,29.88,West,270,1.0,1.0,96,0.00,,---,0.00,VWS V14.01,2013-02-24 05:12:00,
2013-02-24 00:13:00,43.2,42.1,29.88,West,270,1.0,4.0,96,0.00,,---,0.00,VWS V14.01,2013-02-24 05:13:00,
2013-02-24 00:14:00,43.2,42.1,29.89,WNW,292,2.0,4.0,96,0.00,,---,0.00,VWS V14.01,2013-02-24 05:14:00,
2013-02-24 00:15:00,43.2,42.1,29.89,West,270,2.0,3.0,96,0.00,,---,0.00,VWS V14.01,2013-02-24 05:15:00,
2013-02-24 00:16:00,43.2,42.1,29.89,West,270,2.0,3.0,96,0.00,,---,0.00,VWS V14.01,2013-02-24 05:16:00,
2013-02-24 00:17:00,43.2,42.1,29.90,West,270,2.0,2.0,96,0.00,,---,0.00,VWS V14.01,2013-02-24 05:17:00,
2013-02-24 00:18:00,43.3,42.2,29.90,West,270,2.0,3.0,96,0.00,,---,0.00,VWS V14.01,2013-02-24 05:18:00,
2013-02-24 00:19:00,43.3,42.2,29.90,West,270,1.0,1.0,96,0.00,,---,0.00,VWS V14.01,2013-02-24 05:19:00,
2013-02-24 00:20:00,43.3,42.2,29.90,West,270,1.0,3.0,96,0.00,,---,0.00,VWS V14.01,2013-02-24 05:20:00,
2013-02-24 00:21:00,43.3,42.2,29.89,WSW,248,2.0,3.0,96,0.00,,---,0.00,VWS V14.01,2013-02-24 05:21:00,
2013-02-24 00:22:00,43.3,42.2,29.89,WSW,248,1.0,2.0,96,0.00,,---,0.00,VWS V14.01,2013-02-24 05:22:00,
2013-02-24 00:23:00,43.3,42.2,29.89,WNW,292,1.0,2.0,96,0.00,,---,0.00,VWS V14.01,2013-02-24 05:23:00,
2013-02-24 00:24:00,43.3,42.2,29.89,West,270,1.0,2.0,96,0.00,,---,0.00,VWS V14.01,2013-02-24 05:24:00,
2013-02-24 00:25:00,43.3,42.2,29.89,West,270,2.0,3.0,96,0.00,,---,0.00,VWS V14.01,2013-02-24 05:25:00,
2013-02-24 00:26:00,43.3,42.2,29.89,West,270,2.0,3.0,96,0.00,,---,0.00,VWS V14.01,2013-02-24 05:26:00,
2013-02-24 00:27:00,43.3,42.2,29.89,West,270,2.0,2.0,96,0.00,,---,0.00,VWS V14.01,2013-02-24 05:27:00,
2013-02-24 00:28:00,43.3,42.2,29.89,West,270,2.0,3.0,96,0.00,,---,0.00,VWS V14.01,2013-02-24 05:28:00,
2013-02-24 00:29:00,43.3,42.2,29.89,West,270,3.0,5.0,96,0.00,,---,0.00,VWS V14.01,2013-02-24 05:29:00,
2013-02-24 00:30:00,43.3,42.2,29.89,West,270,4.0,4.0,96,0.00,,---,0.00,VWS V14.01,2013-02-24 05:30:00,
2013-02-24 00:31:00,43.3,42.2,29.90,West,270,3.0,5.0,96,0.00,,---,0.00,VWS V14.01,2013-02-24 05:31:00,
2013-02-24 00:32:00,43.3,42.2,29.90,West,270,3.0,5.0,96,0.00,,---,0.00,VWS V14.01,2013-02-24 05:32:00,
2013-02-24 00:33:00,43.3,42.2,29.90,West,270,4.0,5.0,96,0.00,,---,0.00,VWS V14.01,2013-02-24 05:33:00,
2013-02-24 00:34:00,43.2,42.1,29.90,West,270,3.0,5.0,96,0.00,,---,0.00,VWS V14.01,2013-02-24 05:34:00,
2013-02-24 00:35:00,43.3,42.2,29.90,WSW,248,3.0,7.0,96,0.00,,---,0.00,VWS V14.01,2013-02-24 05:35:00,
2013-02-24 00:36:00,43.2,42.1,29.90,WSW,248,4.0,6.0,96,0.00,,---,0.00,VWS V14.01,2013-02-24 05:36:00,
2013-02-24 00:37:00,43.2,42.1,29.90,West,270,3.0,7.0,96,0.00,,---,0.00,VWS V14.01,2013-02-24 05:37:00,
2013-02-24 00:38:00,43.2,42.1,29.90,WNW,292,3.0,4.0,96,0.00,,---,0.00,VWS V14.01,2013-02-24 05:38:00,
2013-02-24 00:39:00,43.2,42.1,29.90,West,270,2.0,3.0,96,0.00,,---,0.00,VWS V14.01,2013-02-24 05:39:00,
2013-02-24 00:40:00,43.3,42.2,29.90,West,270,2.0,3.0,96,0.00,,---,0.00,VWS V14.01,2013-02-24 05:40:00,
2013-02-24 00:41:00,43.2,42.1,29.90,WNW,292,2.0,3.0,96,0.00,,---,0.00,VWS V14.01,2013-02-24 05:41:00,
2013-02-24 00:42:00,43.3,42.2,29.90,WSW,248,3.0,4.0,96,0.00,,---,0.00,VWS V14.01,2013-02-24 05:42:00,
2013-02-24 00:43:00,43.2,42.1,29.90,West,270,2.0,2.0,96,0.00,,---,0.00,VWS V14.01,2013-02-24 05:43:00,
2013-02-24 00:44:00,43.2,42.1,29.90,West,270,3.0,4.0,96,0.00,,---,0.00,VWS V14.01,2013-02-24 05:44:00,
2013-02-24 00:45:00,43.3,42.2,29.90,WNW,292,2.0,3.0,96,0.00,,---,0.00,VWS V14.01,2013-02-24 05:45:00,
2013-02-24 00:46:00,43.3,42.2,29.90,West,270,3.0,4.0,96,0.00,,---,0.00,VWS V14.01,2013-02-24 05:46:00,
2013-02-24 00:47:00,43.2,42.1,29.90,West,270,1.0,2.0,96,0.00,,---,0.00,VWS V14.01,2013-02-24 05:47:00,
2013-02-24 00:48:00,43.3,42.2,29.90,WNW,292,2.0,4.0,96,0.00,,---,0.00,VWS V14.01,2013-02-24 05:48:00,
2013-02-24 00:49:00,43.3,42.2,29.90,WSW,248,3.0,4.0,96,0.00,,---,0.00,VWS V14.01,2013-02-24 05:49:00,
2013-02-24 00:50:00,43.3,42.2,29.90,West,270,2.0,3.0,96,0.00,,---,0.00,VWS V14.01,2013-02-24 05:50:00,
2013-02-24 00:51:00,43.3,42.2,29.90,West,270,2.0,3.0,96,0.00,,---,0.00,VWS V14.01,2013-02-24 05:51:00,
2013-02-24 00:52:00,43.3,42.2,29.90,West,270,2.0,3.0,96,0.00,,---,0.00,VWS V14.01,2013-02-24 05:52:00,
2013-02-24 00:53:00,43.3,42.2,29.90,West,270,2.0,2.0,96,0.00,,---,0.00,VWS V14.01,2013-02-24 05:53:00,
2013-02-24 00:54:00,43.3,42.2,29.90,WSW,248,1.0,1.0,96,0.00,,---,0.00,VWS V14.01,2013-02-24 05:54:00,
2013-02-24 00:55:00,43.3,42.2,29.90,West,270,1.0,3.0,96,0.00,,---,0.00,VWS V14.01,2013-02-24 05:55:00,
2013-02-24 00:56:00,43.3,42.2,29.90,WNW,292,3.0,5.0,96,0.00,,---,0.00,VWS V14.01,2013-02-24 05:56:00,
2013-02-24 00:57:00,43.3,42.2,29.90,WSW,248,4.0,5.0,96,0.00,,---,0.00,VWS V14.01,2013-02-24 05:57:00,
2013-02-24 00:58:00,43.3,42.2,29.90,West,270,3.0,4.0,96,0.00,,---,0.00,VWS V14.01,2013-02-24 05:58:00,
2013-02-24 00:59:00,43.3,42.2,29.90,WNW,292,2.0,3.0,96,0.00,,---,0.00,VWS V14.01,2013-02-24 05:59:00,
2013-02-24 01:00:00,43.3,42.2,29.90,NW,315,2.0,3.0,96,0.00,,---,0.00,VWS V14.01,2013-02-24 06:00:00,
2013-02-24 01:01:00,43.3,42.2,29.89,NNE,22,1.0,1.0,96,0.00,,---,0.00,VWS V14.01,2013-02-24 06:01:00,
2013-02-24 01:02:00,43.3,42.2,29.89,NNE,22,1.0,3.0,96,0.00,,---,0.00,VWS V14.01,2013-02-24 06:02:00,
2013-02-24 01:03:00,43.3,42.2,29.89,WNW,292,1.0,2.0,96,0.00,,---,0.00,VWS V14.01,2013-02-24 06:03:00,
2013-02-24 01:04:00,43.3,42.2,29.89,NW,315,2.0,3.0,96,0.00,,---,0.00,VWS V14.01,2013-02-24 06:04:00,
2013-02-24 01:05:00,43.3,42.2,29.90,WNW,292,2.0,3.0,96,0.00,,---,0.00,VWS V14.01,2013-02-24 06:05:00,
2013-02-24 01:06:00,43.3,42.2,29.90,West,270,3.0,5.0,96,0.00,,---,0.00,VWS V14.01,2013-02-24 06:06:00,
2013-02-24 01:07:00,43.2,42.1,29.89,West,270,3.0,4.0,96,0.00,,---,0.00,VWS V14.01,2013-02-24 06:07:00,
2013-02-24 01:08:00,43.3,42.2,29.89,West,270,2.0,3.0,96,0.00,,---,0.00,VWS V14.01,2013-02-24 06:08:00,
2013-02-24 01:09:00,43.2,42.1,29.89,WNW,292,1.0,2.0,96,0.00,,---,0.00,VWS V14.01,2013-02-24 06:09:00,
2013-02-24 01:10:00,43.3,42.2,29.89,West,270,3.0,4.0,96,0.00,,---,0.00,VWS V14.01,2013-02-24 06:10:00,
2013-02-24 01:11:00,43.3,42.2,29.89,West,270,1.0,3.0,96,0.00,,---,0.00,VWS V14.01,2013-02-24 06:11:00,
2013-02-24 01:12:00,43.3,42.2,29.89,WSW,248,4.0,5.0,96,0.00,,---,0.00,VWS V14.01,2013-02-24 06:12:00,
2013-02-24 01:13:00,43.3,42.2,29.90,West,270,4.0,5.0,96,0.00,,---,0.00,VWS V14.01,2013-02-24 06:13:00,
2013-02-24 01:14:00,43.3,42.2,29.89,West,270,2.0,3.0,96,0.00,,---,0.00,VWS V14.01,2013-02-24 06:14:00,
2013-02-24 01:15:00,43.3,42.2,29.89,WSW,248,2.0,4.0,96,0.00,,---,0.00,VWS V14.01,2013-02-24 06:15:00,
2013-02-24 01:16:00,43.2,42.1,29.89,West,270,2.0,3.0,96,0.00,,---,0.00,VWS V14.01,2013-02-24 06:16:00,
2013-02-24 01:17:00,43.3,42.2,29.89,West,270,1.0,3.0,96,0.00,,---,0.00,VWS V14.01,2013-02-24 06:17:00,
2013-02-24 01:18:00,43.3,42.2,29.89,West,270,3.0,4.0,96,0.00,,---,0.00,VWS V14.01,2013-02-24 06:18:00,
2013-02-24 01:19:00,43.2,42.1,29.89,West,270,3.0,3.0,96,0.00,,---,0.00,VWS V14.01,2013-02-24 06:19:00,
2013-02-24 01:20:00,43.3,42.2,29.89,West,270,3.0,4.0,96,0.00,,---,0.00,VWS V14.01,2013-02-24 06:20:00,
2013-02-24 01:21:00,43.2,42.1,29.89,WSW,248,2.0,3.0,96,0.00,,---,0.00,VWS V14.01,2013-02-24 06:21:00,
2013-02-24 01:22:00,43.3,42.2,29.89,WSW,248,2.0,2.0,96,0.00,,---,0.00,VWS V14.01,2013-02-24 06:22:00,
2013-02-24 01:23:00,43.3,42.2,29.88,SW,225,2.0,3.0,96,0.00,,---,0.00,VWS V14.01,2013-02-24 06:23:00,
2013-02-24 01:24:00,43.3,42.2,29.88,WSW,248,2.0,3.0,96,0.00,,---,0.00,VWS V14.01,2013-02-24 06:24:00,
2013-02-24 01:25:00,43.2,42.1,29.88,SW,225,1.0,2.0,96,0.00,,---,0.00,VWS V14.01,2013-02-24 06:25:00,
2013-02-24 01:26:00,43.2,42.1,29.88,WSW,248,2.0,3.0,96,0.00,,---,0.00,VWS V14.01,2013-02-24 06:26:00,
2013-02-24 01:27:00,43.3,42.2,29.88,WSW,248,1.0,2.0,96,0.00,,---,0.00,VWS V14.01,2013-02-24 06:27:00,
2013-02-24 01:28:00,43.3,42.2,29.88,WSW,248,1.0,2.0,96,0.00,,---,0.00,VWS V14.01,2013-02-24 06:28:00,
2013-02-24 01:29:00,43.2,42.1,29.88,WSW,248,1.0,2.0,96,0.00,,---,0.00,VWS V14.01,2013-02-24 06:29:00,
2013-02-24 01:30:00,43.2,42.1,29.88,SW,225,1.0,2.0,96,0.00,,---,0.00,VWS V14.01,2013-02-24 06:30:00,
2013-02-24 01:31:00,43.2,42.1,29.87,WSW,248,1.0,2.0,96,0.00,,---,0.00,VWS V14.01,2013-02-24 06:31:00,
2013-02-24 01:32:00,43.2,42.1,29.88,SW,225,1.0,2.0,96,0.00,,---,0.00,VWS V14.01,2013-02-24 06:32:00,
2013-02-24 01:33:00,43.2,42.1,29.88,SW,225,1.0,2.0,96,0.00,,---,0.00,VWS V14.01,2013-02-24 06:33:00,
2013-02-24 01:34:00,43.2,42.1,29.88,WSW,248,2.0,2.0,96,0.00,,---,0.00,VWS V14.01,2013-02-24 06:34:00,
2013-02-24 01:35:00,43.2,42.1,29.88,WSW,248,2.0,3.0,96,0.00,,---,0.00,VWS V14.01,2013-02-24 06:35:00,
2013-02-24 01:36:00,43.2,42.1,29.88,WSW,248,1.0,1.0,96,0.00,,---,0.00,VWS V14.01,2013-02-24 06:36:00,
2013-02-24 01:37:00,43.2,42.1,29.88,West,270,1.0,3.0,96,0.00,,---,0.00,VWS V14.01,2013-02-24 06:37:00,
2013-02-24 01:38:00,43.3,42.2,29.88,WNW,292,2.0,3.0,96,0.00,,---,0.00,VWS V14.01,2013-02-24 06:38:00,
2013-02-24 01:39:00,43.3,42.5,29.88,West,270,2.0,3.0,97,0.00,,---,0.00,VWS V14.01,2013-02-24 06:39:00,
2013-02-24 01:40:00,43.3,42.5,29.88,West,270,2.0,2.0,97,0.00,,---,0.00,VWS V14.01,2013-02-24 06:40:00,
2013-02-24 01:41:00,43.3,42.5,29.88,West,270,2.0,3.0,97,0.00,,---,0.00,VWS V14.01,2013-02-24 06:41:00,
2013-02-24 01:42:00,43.3,42.5,29.88,WNW,292,2.0,3.0,97,0.00,,---,0.00,VWS V14.01,2013-02-24 06:42:00,
2013-02-24 01:43:00,43.3,42.5,29.88,WNW,292,1.0,2.0,97,0.00,,---,0.00,VWS V14.01,2013-02-24 06:43:00,
2013-02-24 01:44:00,43.3,42.5,29.88,WNW,292,2.0,4.0,97,0.00,,---,0.00,VWS V14.01,2013-02-24 06:44:00,
2013-02-24 01:45:00,43.3,42.5,29.88,WNW,292,1.0,3.0,97,0.00,,---,0.00,VWS V14.01,2013-02-24 06:45:00,
2013-02-24 01:46:00,43.3,42.5,29.89,West,270,1.0,3.0,97,0.00,,---,0.00,VWS V14.01,2013-02-24 06:46:00,
2013-02-24 01:47:00,43.3,42.5,29.89,West,270,2.0,3.0,97,0.00,,---,0.00,VWS V14.01,2013-02-24 06:47:00,
2013-02-24 01:48:00,43.3,42.5,29.89,WNW,292,1.0,1.0,97,0.00,,---,0.00,VWS V14.01,2013-02-24 06:48:00,
2013-02-24 01:49:00,43.3,42.5,29.89,WNW,292,1.0,1.0,97,0.00,,---,0.00,VWS V14.01,2013-02-24 06:49:00,
2013-02-24 01:50:00,43.3,42.5,29.89,WNW,292,1.0,2.0,97,0.00,,---,0.00,VWS V14.01,2013-02-24 06:50:00,
2013-02-24 01:51:00,43.3,42.5,29.88,WNW,292,1.0,2.0,97,0.00,,---,0.00,VWS V14.01,2013-02-24 06:51:00,
2013-02-24 01:52:00,43.3,42.5,29.89,North,0,1.0,3.0,97,0.00,,---,0.00,VWS V14.01,2013-02-24 06:52:00,
2013-02-24 01:53:00,43.3,42.5,29.88,NNW,338,1.0,2.0,97,0.00,,---,0.00,VWS V14.01,2013-02-24 06:53:00,
2013-02-24 01:54:00,43.3,42.5,29.88,NW,315,2.0,3.0,97,0.00,,---,0.00,VWS V14.01,2013-02-24 06:54:00,
2013-02-24 01:55:00,43.3,42.5,29.88,NW,315,0.0,1.0,97,0.00,,---,0.00,VWS V14.01,2013-02-24 06:55:00,
2013-02-24 01:56:00,43.3,42.5,29.88,NW,315,1.0,2.0,97,0.00,,---,0.00,VWS V14.01,2013-02-24 06:56:00,
2013-02-24 01:57:00,43.3,42.5,29.88,NNW,338,0.0,2.0,97,0.00,,---,0.00,VWS V14.01,2013-02-24 06:57:00,
2013-02-24 01:58:00,43.3,42.5,29.88,West,270,1.0,2.0,97,0.00,,---,0.00,VWS V14.01,2013-02-24 06:58:00,
2013-02-24 01:59:00,43.3,42.5,29.88,WNW,292,1.0,2.0,97,0.00,,---,0.00,VWS V14.01,2013-02-24 06:59:00,
2013-02-24 02:00:00,43.3,42.5,29.88,West,270,2.0,4.0,97,0.00,,---,0.00,VWS V14.01,2013-02-24 07:00:00,
2013-02-24 02:01:00,43.3,42.5,29.88,West,270,1.0,3.0,97,0.00,,---,0.00,VWS V14.01,2013-02-24 07:01:00,
2013-02-24 02:02:00,43.3,42.5,29.87,West,270,1.0,2.0,97,0.00,,---,0.00,VWS V14.01,2013-02-24 07:02:00,
2013-02-24 02:03:00,43.3,42.5,29.87,NW,315,1.0,2.0,97,0.00,,---,0.00,VWS V14.01,2013-02-24 07:03:00,
2013-02-24 02:04:00,43.3,42.5,29.87,NW,315,0.0,0.0,97,0.00,,---,0.00,VWS V14.01,2013-02-24 07:04:00,
2013-02-24 02:05:00,43.2,42.4,29.87,NW,315,0.0,0.0,97,0.00,,---,0.00,VWS V14.01,2013-02-24 07:05:00,
2013-02-24 02:06:00,43.3,42.5,29.86,NNE,22,1.0,2.0,97,0.00,,---,0.00,VWS V14.01,2013-02-24 07:06:00,
2013-02-24 02:07:00,43.2,42.4,29.86,NNW,338,1.0,1.0,97,0.00,,---,0.00,VWS V14.01,2013-02-24 07:07:00,
2013-02-24 02:08:00,43.2,42.4,29.86,NNW,338,1.0,3.0,97,0.00,,---,0.00,VWS V14.01,2013-02-24 07:08:00,
2013-02-24 02:09:00,43.2,42.4,29.86,NNW,338,1.0,2.0,97,0.00,,---,0.00,VWS V14.01,2013-02-24 07:09:00,
2013-02-24 02:10:00,43.2,42.4,29.86,NNW,338,0.0,1.0,97,0.00,,---,0.00,VWS V14.01,2013-02-24 07:10:00,
2013-02-24 02:11:00,43.2,42.4,29.86,NNW,338,0.0,1.0,97,0.00,,---,0.00,VWS V14.01,2013-02-24 07:11:00,
2013-02-24 02:12:00,43.2,42.4,29.86,NNW,338,0.0,1.0,97,0.00,,---,0.00,VWS V14.01,2013-02-24 07:12:00,
2013-02-24 02:13:00,43.2,42.4,29.86,WNW,292,0.0,1.0,97,0.00,,---,0.00,VWS V14.01,2013-02-24 07:13:00,
2013-02-24 02:14:00,43.2,42.4,29.87,WNW,292,1.0,2.0,97,0.00,,---,0.00,VWS V14.01,2013-02-24 07:14:00,
2013-02-24 02:15:00,43.2,42.4,29.87,WNW,292,1.0,2.0,97,0.00,,---,0.00,VWS V14.01,2013-02-24 07:15:00,
2013-02-24 02:16:00,43.2,42.4,29.87,West,270,2.0,3.0,97,0.00,,---,0.00,VWS V14.01,2013-02-24 07:16:00,
2013-02-24 02:17:00,43.2,42.4,29.87,West,270,2.0,4.0,97,0.00,,---,0.00,VWS V14.01,2013-02-24 07:17:00,
2013-02-24 02:18:00,43.2,42.4,29.87,West,270,2.0,4.0,97,0.00,,---,0.00,VWS V14.01,2013-02-24 07:18:00,
2013-02-24 02:19:00,43.2,42.4,29.87,WNW,292,2.0,3.0,97,0.00,,---,0.00,VWS V14.01,2013-02-24 07:19:00,
2013-02-24 02:20:00,43.2,42.4,29.87,WNW,292,1.0,1.0,97,0.00,,---,0.00,VWS V14.01,2013-02-24 07:20:00,
2013-02-24 02:21:00,43.2,42.4,29.87,WNW,292,1.0,2.0,97,0.00,,---,0.00,VWS V14.01,2013-02-24 07:21:00,
2013-02-24 02:22:00,43.2,42.4,29.87,NW,315,1.0,2.0,97,0.00,,---,0.00,VWS V14.01,2013-02-24 07:22:00,
2013-02-24 02:23:00,43.2,42.4,29.87,WNW,292,1.0,1.0,97,0.00,,---,0.00,VWS V14.01,2013-02-24 07:23:00,
2013-02-24 02:24:00,43.2,42.4,29.87,WNW,292,1.0,2.0,97,0.00,,---,0.00,VWS V14.01,2013-02-24 07:24:00,
2013-02-24 02:25:00,43.2,42.4,29.86,West,270,2.0,3.0,97,0.00,,---,0.00,VWS V14.01,2013-02-24 07:25:00,
2013-02-24 02:26:00,43.3,42.5,29.87,West,270,2.0,3.0,97,0.00,,---,0.00,VWS V14.01,2013-02-24 07:26:00,
2013-02-24 02:27:00,43.2,42.4,29.86,West,270,2.0,3.0,97,0.00,,---,0.00,VWS V14.01,2013-02-24 07:27:00,
2013-02-24 02:28:00,43.3,42.5,29.86,WNW,292,3.0,4.0,97,0.00,,---,0.00,VWS V14.01,2013-02-24 07:28:00,
2013-02-24 02:29:00,43.2,42.4,29.86,West,270,3.0,5.0,97,0.00,,---,0.00,VWS V14.01,2013-02-24 07:29:00,
2013-02-24 02:30:00,43.2,42.4,29.86,West,270,4.0,5.0,97,0.00,,---,0.00,VWS V14.01,2013-02-24 07:30:00,
2013-02-24 02:31:00,43.2,42.4,29.87,West,270,3.0,4.0,97,0.00,,---,0.00,VWS V14.01,2013-02-24 07:31:00,
2013-02-24 02:32:00,43.3,42.5,29.87,West,270,2.0,4.0,97,0.00,,---,0.00,VWS V14.01,2013-02-24 07:32:00,
2013-02-24 02:33:00,43.2,42.4,29.86,West,270,2.0,4.0,97,0.00,,---,0.00,VWS V14.01,2013-02-24 07:33:00,
2013-02-24 02:34:00,43.2,42.4,29.86,West,270,3.0,5.0,97,0.00,,---,0.00,VWS V14.01,2013-02-24 07:34:00,
2013-02-24 02:35:00,43.2,42.4,29.86,West,270,2.0,4.0,97,0.00,,---,0.00,VWS V14.01,2013-02-24 07:35:00,
2013-02-24 02:36:00,43.2,42.4,29.86,West,270,1.0,2.0,97,0.00,,---,0.00,VWS V14.01,2013-02-24 07:36:00,
2013-02-24 02:37:00,43.2,42.4,29.86,West,270,3.0,5.0,97,0.00,,---,0.00,VWS V14.01,2013-02-24 07:37:00,
2013-02-24 02:38:00,43.2,42.4,29.86,West,270,4.0,5.0,97,0.00,,---,0.00,VWS V14.01,2013-02-24 07:38:00,
2013-02-24 02:39:00,43.2,42.4,29.86,West,270,2.0,3.0,97,0.00,,---,0.00,VWS V14.01,2013-02-24 07:39:00,
2013-02-24 02:40:00,43.2,42.4,29.86,West,270,2.0,3.0,97,0.00,,---,0.00,VWS V14.01,2013-02-24 07:40:00,
2013-02-24 02:41:00,43.2,42.4,29.86,West,270,1.0,2.0,97,0.00,,---,0.00,VWS V14.01,2013-02-24 07:41:00,
2013-02-24 02:42:00,43.2,42.4,29.86,West,270,1.0,1.0,97,0.00,,---,0.00,VWS V14.01,2013-02-24 07:42:00,
2013-02-24 02:43:00,43.2,42.4,29.86,West,270,2.0,4.0,97,0.00,,---,0.00,VWS V14.01,2013-02-24 07:43:00,
2013-02-24 02:44:00,43.2,42.4,29.86,West,270,4.0,4.0,97,0.00,,---,0.00,VWS V14.01,2013-02-24 07:44:00,
2013-02-24 02:45:00,43.2,42.4,29.86,West,270,2.0,3.0,97,0.00,,---,0.00,VWS V14.01,2013-02-24 07:45:00,
2013-02-24 02:46:00,43.2,42.4,29.86,West,270,2.0,4.0,97,0.00,,---,0.00,VWS V14.01,2013-02-24 07:46:00,
2013-02-24 02:47:00,43.2,42.4,29.86,WNW,292,2.0,4.0,97,0.00,,---,0.00,VWS V14.01,2013-02-24 07:47:00,
2013-02-24 02:48:00,43.2,42.4,29.85,West,270,2.0,3.0,97,0.00,,---,0.00,VWS V14.01,2013-02-24 07:48:00,
2013-02-24 02:49:00,43.2,42.4,29.85,West,270,0.0,1.0,97,0.00,,---,0.00,VWS V14.01,2013-02-24 07:49:00,
2013-02-24 02:50:00,43.2,42.4,29.85,West,270,0.0,1.0,97,0.00,,---,0.00,VWS V14.01,2013-02-24 07:50:00,
2013-02-24 02:51:00,43.2,42.4,29.85,NNE,22,1.0,3.0,97,0.00,,---,0.00,VWS V14.01,2013-02-24 07:51:00,
2013-02-24 02:52:00,43.2,42.4,29.85,WNW,292,1.0,2.0,97,0.00,,---,0.00,VWS V14.01,2013-02-24 07:52:00,
2013-02-24 02:53:00,43.2,42.4,29.85,WNW,292,1.0,2.0,97,0.00,,---,0.00,VWS V14.01,2013-02-24 07:53:00,
2013-02-24 02:54:00,43.2,42.4,29.85,WNW,292,2.0,4.0,97,0.00,,---,0.00,VWS V14.01,2013-02-24 07:54:00,
2013-02-24 02:55:00,43.2,42.4,29.85,WNW,292,1.0,2.0,97,0.00,,---,0.00,VWS V14.01,2013-02-24 07:55:00,
2013-02-24 02:56:00,43.2,42.4,29.85,West,270,1.0,2.0,97,0.00,,---,0.00,VWS V14.01,2013-02-24 07:56:00,
2013-02-24 02:57:00,43.2,42.4,29.85,West,270,1.0,1.0,97,0.00,,---,0.00,VWS V14.01,2013-02-24 07:57:00,
2013-02-24 02:58:00,43.2,42.4,29.85,NW,315,1.0,2.0,97,0.00,,---,0.00,VWS V14.01,2013-02-24 07:58:00,
2013-02-24 02:59:00,43.2,42.4,29.84,West,270,0.0,1.0,97,0.00,,---,0.00,VWS V14.01,2013-02-24 07:59:00,
2013-02-24 03:00:00,43.2,42.4,29.85,West,270,2.0,3.0,97,0.00,,---,0.00,VWS V14.01,2013-02-24 08:00:00,
2013-02-24 03:01:00,43.2,42.4,29.85,West,270,2.0,2.0,97,0.00,,---,0.00,VWS V14.01,2013-02-24 08:01:00,
2013-02-24 03:02:00,43.2,42.4,29.85,West,270,2.0,3.0,97,0.00,,---,0.00,VWS V14.01,2013-02-24 08:02:00,
2013-02-24 03:03:00,43.3,42.5,29.85,West,270,3.0,5.0,97,0.00,,---,0.00,VWS V14.01,2013-02-24 08:03:00,
2013-02-24 03:04:00,43.3,42.5,29.85,West,270,3.0,4.0,97,0.00,,---,0.00,VWS V14.01,2013-02-24 08:04:00,
2013-02-24 03:05:00,43.2,42.4,29.85,WNW,292,2.0,4.0,97,0.00,,---,0.00,VWS V14.01,2013-02-24 08:05:00,
2013-02-24 03:06:00,43.2,42.4,29.85,WNW,292,1.0,2.0,97,0.00,,---,0.00,VWS V14.01,2013-02-24 08:06:00,
2013-02-24 03:07:00,43.2,42.4,29.85,West,270,2.0,3.0,97,0.00,,---,0.00,VWS V14.01,2013-02-24 08:07:00,
2013-02-24 03:08:00,43.3,42.5,29.85,WNW,292,2.0,4.0,97,0.00,,---,0.00,VWS V14.01,2013-02-24 08:08:00,
2013-02-24 03:09:00,43.3,42.5,29.85,WNW,292,2.0,3.0,97,0.00,,---,0.00,VWS V14.01,2013-02-24 08:09:00,
2013-02-24 03:10:00,43.3,42.5,29.85,WNW,292,3.0,4.0,97,0.00,,---,0.00,VWS V14.01,2013-02-24 08:10:00,
2013-02-24 03:11:00,43.3,42.5,29.85,NW,315,2.0,4.0,97,0.00,,---,0.00,VWS V14.01,2013-02-24 08:11:00,
2013-02-24 03:12:00,43.3,42.5,29.85,West,270,4.0,6.0,97,0.00,,---,0.00,VWS V14.01,2013-02-24 08:12:00,
2013-02-24 03:13:00,43.3,42.5,29.85,WNW,292,3.0,6.0,97,0.00,,---,0.00,VWS V14.01,2013-02-24 08:13:00,
2013-02-24 03:14:00,43.3,42.5,29.85,WNW,292,5.0,7.0,97,0.00,,---,0.00,VWS V14.01,2013-02-24 08:14:00,
2013-02-24 03:15:00,43.3,42.5,29.85,NW,315,2.0,3.0,97,0.00,,---,0.00,VWS V14.01,2013-02-24 08:15:00,
2013-02-24 03:16:00,43.3,42.5,29.85,West,270,1.0,2.0,97,0.00,,---,0.00,VWS V14.01,2013-02-24 08:16:00,
2013-02-24 03:17:00,43.3,42.5,29.85,West,270,3.0,4.0,97,0.00,,---,0.00,VWS V14.01,2013-02-24 08:17:00,
2013-02-24 03:18:00,43.3,42.5,29.86,West,270,2.0,3.0,97,0.00,,---,0.00,VWS V14.01,2013-02-24 08:18:00,
2013-02-24 03:19:00,43.3,42.5,29.85,West,270,2.0,5.0,97,0.00,,---,0.00,VWS V14.01,2013-02-24 08:19:00,
2013-02-24 03:20:00,43.3,42.5,29.85,WNW,292,4.0,7.0,97,0.01,,---,0.01,VWS V14.01,2013-02-24 08:20:00,
2013-02-24 03:21:00,43.3,42.5,29.85,West,270,4.0,5.0,97,0.01,,---,0.01,VWS V14.01,2013-02-24 08:21:00,
2013-02-24 03:22:00,43.3,42.5,29.85,West,270,2.0,3.0,97,0.01,,---,0.01,VWS V14.01,2013-02-24 08:22:00,
2013-02-24 03:23:00,43.3,42.5,29.85,WNW,292,1.0,2.0,97,0.01,,---,0.01,VWS V14.01,2013-02-24 08:23:00,
2013-02-24 03:24:00,43.3,42.5,29.85,WNW,292,1.0,2.0,97,0.01,,---,0.01,VWS V14.01,2013-02-24 08:24:00,
2013-02-24 03:25:00,43.3,42.5,29.86,West,270,1.0,2.0,97,0.01,,---,0.01,VWS V14.01,2013-02-24 08:25:00,
2013-02-24 03:26:00,43.3,42.5,29.86,WNW,292,2.0,3.0,97,0.01,,---,0.01,VWS V14.01,2013-02-24 08:26:00,
2013-02-24 03:27:00,43.3,42.5,29.86,WNW,292,4.0,6.0,97,0.01,,---,0.01,VWS V14.01,2013-02-24 08:27:00,
2013-02-24 03:28:00,43.3,42.5,29.86,West,270,2.0,4.0,97,0.01,,---,0.01,VWS V14.01,2013-02-24 08:28:00,
2013-02-24 03:29:00,43.3,42.5,29.86,West,270,3.0,4.0,97,0.01,,---,0.01,VWS V14.01,2013-02-24 08:29:00,
2013-02-24 03:30:00,43.4,42.6,29.86,WNW,292,2.0,3.0,97,0.01,,---,0.01,VWS V14.01,2013-02-24 08:30:00,
2013-02-24 03:31:00,43.3,42.5,29.86,NW,315,2.0,3.0,97,0.01,,---,0.01,VWS V14.01,2013-02-24 08:31:00,
2013-02-24 03:32:00,43.3,42.5,29.85,NNE,22,2.0,2.0,97,0.01,,---,0.01,VWS V14.01,2013-02-24 08:32:00,
2013-02-24 03:33:00,43.3,42.5,29.85,NNW,338,2.0,5.0,97,0.01,,---,0.01,VWS V14.01,2013-02-24 08:33:00,
2013-02-24 03:34:00,43.3,42.5,29.85,NNE,22,2.0,4.0,97,0.01,,---,0.01,VWS V14.01,2013-02-24 08:34:00,
2013-02-24 03:35:00,43.3,42.5,29.85,NE,45,2.0,3.0,97,0.01,,---,0.01,VWS V14.01,2013-02-24 08:35:00,
2013-02-24 03:36:00,43.3,42.5,29.84,NNE,22,0.0,2.0,97,0.01,,---,0.01,VWS V14.01,2013-02-24 08:36:00,
2013-02-24 03:37:00,43.3,42.5,29.84,SSE,158,0.0,1.0,97,0.01,,---,0.01,VWS V14.01,2013-02-24 08:37:00,
2013-02-24 03:38:00,43.3,42.5,29.83,WSW,248,2.0,3.0,97,0.01,,---,0.01,VWS V14.01,2013-02-24 08:38:00,
2013-02-24 03:39:00,43.3,42.5,29.84,South,180,3.0,4.0,97,0.01,,---,0.01,VWS V14.01,2013-02-24 08:39:00,
2013-02-24 03:40:00,43.3,42.5,29.85,NW,315,3.0,4.0,97,0.01,,---,0.01,VWS V14.01,2013-02-24 08:40:00,
2013-02-24 03:41:00,43.4,42.6,29.85,WNW,292,2.0,3.0,97,0.01,,---,0.01,VWS V14.01,2013-02-24 08:41:00,
2013-02-24 03:42:00,43.4,42.6,29.85,WNW,292,3.0,4.0,97,0.01,,---,0.01,VWS V14.01,2013-02-24 08:42:00,
2013-02-24 03:43:00,43.4,42.6,29.85,West,270,3.0,4.0,97,0.01,,---,0.01,VWS V14.01,2013-02-24 08:43:00,
2013-02-24 03:44:00,43.4,42.6,29.85,West,270,3.0,4.0,97,0.01,,---,0.01,VWS V14.01,2013-02-24 08:44:00,
2013-02-24 03:45:00,43.4,42.6,29.85,WNW,292,3.0,4.0,97,0.01,,---,0.01,VWS V14.01,2013-02-24 08:45:00,
2013-02-24 03:46:00,43.5,42.7,29.85,WNW,292,3.0,4.0,97,0.01,,---,0.01,VWS V14.01,2013-02-24 08:46:00,
2013-02-24 03:47:00,43.5,42.7,29.85,WNW,292,1.0,2.0,97,0.01,,---,0.01,VWS V14.01,2013-02-24 08:47:00,
2013-02-24 03:48:00,43.4,42.6,29.85,WNW,292,2.0,4.0,97,0.01,,---,0.01,VWS V14.01,2013-02-24 08:48:00,
2013-02-24 03:49:00,43.5,42.7,29.85,WNW,292,1.0,3.0,97,0.01,,---,0.01,VWS V14.01,2013-02-24 08:49:00,
2013-02-24 03:50:00,43.5,42.7,29.85,WNW,292,1.0,3.0,97,0.01,,---,0.01,VWS V14.01,2013-02-24 08:50:00,
2013-02-24 03:51:00,43.5,42.7,29.85,West,270,3.0,5.0,97,0.01,,---,0.01,VWS V14.01,2013-02-24 08:51:00,
2013-02-24 03:52:00,43.5,42.7,29.86,West,270,2.0,3.0,97,0.01,,---,0.01,VWS V14.01,2013-02-24 08:52:00,
2013-02-24 03:53:00,43.5,42.7,29.86,WNW,292,2.0,4.0,97,0.01,,---,0.01,VWS V14.01,2013-02-24 08:53:00,
2013-02-24 03:54:00,43.5,42.7,29.86,WNW,292,2.0,4.0,97,0.01,,---,0.01,VWS V14.01,2013-02-24 08:54:00,
2013-02-24 03:55:00,43.5,42.7,29.86,West,270,4.0,6.0,97,0.01,,---,0.01,VWS V14.01,2013-02-24 08:55:00,
2013-02-24 03:56:00,43.5,42.7,29.85,West,270,2.0,4.0,97,0.01,,---,0.01,VWS V14.01,2013-02-24 08:56:00,
2013-02-24 03:57:00,43.6,42.8,29.86,WSW,248,3.0,4.0,97,0.01,,---,0.01,VWS V14.01,2013-02-24 08:57:00,
2013-02-24 03:58:00,43.6,42.8,29.86,WNW,292,3.0,4.0,97,0.01,,---,0.01,VWS V14.01,2013-02-24 08:58:00,
2013-02-24 03:59:00,43.6,42.8,29.86,WNW,292,3.0,5.0,97,0.01,,---,0.01,VWS V14.01,2013-02-24 08:59:00,
2013-02-24 04:00:00,43.6,42.8,29.86,WNW,292,3.0,4.0,97,0.01,,---,0.01,VWS V14.01,2013-02-24 09:00:00,
2013-02-24 04:01:00,43.6,42.8,29.86,WNW,292,3.0,5.0,97,0.01,,---,0.01,VWS V14.01,2013-02-24 09:01:00,
2013-02-24 04:02:00,43.6,42.8,29.86,NW,315,2.0,4.0,97,0.01,,---,0.01,VWS V14.01,2013-02-24 09:02:00,
2013-02-24 04:03:00,43.6,42.8,29.86,West,270,2.0,3.0,97,0.01,,---,0.01,VWS V14.01,2013-02-24 09:03:00,
2013-02-24 04:04:00,43.6,42.8,29.86,WNW,292,2.0,3.0,97,0.01,,---,0.01,VWS V14.01,2013-02-24 09:04:00,
2013-02-24 04:05:00,43.6,42.8,29.86,WNW,292,4.0,6.0,97,0.01,,---,0.01,VWS V14.01,2013-02-24 09:05:00,
2013-02-24 04:06:00,43.6,42.8,29.86,WNW,292,2.0,3.0,97,0.02,,---,0.02,VWS V14.01,2013-02-24 09:06:00,
2013-02-24 04:07:00,43.6,42.8,29.86,NNE,22,3.0,4.0,97,0.02,,---,0.02,VWS V14.01,2013-02-24 09:07:00,
2013-02-24 04:08:00,43.7,42.9,29.86,NNW,338,4.0,9.0,97,0.02,,---,0.02,VWS V14.01,2013-02-24 09:08:00,
2013-02-24 04:09:00,43.6,42.8,29.86,WNW,292,4.0,9.0,97,0.02,,---,0.02,VWS V14.01,2013-02-24 09:09:00,
2013-02-24 04:10:00,43.6,42.8,29.86,NNW,338,3.0,6.0,97,0.02,,---,0.02,VWS V14.01,2013-02-24 09:10:00,
2013-02-24 04:11:00,43.6,42.8,29.86,West,270,3.0,5.0,97,0.02,,---,0.02,VWS V14.01,2013-02-24 09:11:00,
2013-02-24 04:12:00,43.6,42.8,29.86,NNW,338,1.0,2.0,97,0.02,,---,0.02,VWS V14.01,2013-02-24 09:12:00,
2013-02-24 04:13:00,43.6,42.8,29.86,West,270,1.0,1.0,97,0.02,,---,0.02,VWS V14.01,2013-02-24 09:13:00,
2013-02-24 04:14:00,43.6,42.8,29.86,NNW,338,2.0,2.0,97,0.02,,---,0.02,VWS V14.01,2013-02-24 09:14:00,
2013-02-24 04:15:00,43.6,42.8,29.86,NW,315,2.0,3.0,97,0.02,,---,0.02,VWS V14.01,2013-02-24 09:15:00,
2013-02-24 04:16:00,43.6,42.8,29.86,NW,315,2.0,3.0,97,0.02,,---,0.02,VWS V14.01,2013-02-24 09:16:00,
2013-02-24 04:17:00,43.6,42.8,29.86,WNW,292,4.0,7.0,97,0.02,,---,0.02,VWS V14.01,2013-02-24 09:17:00,
2013-02-24 04:18:00,43.6,42.8,29.86,WNW,292,4.0,6.0,97,0.02,,---,0.02,VWS V14.01,2013-02-24 09:18:00,
2013-02-24 04:19:00,43.6,42.8,29.86,West,270,2.0,3.0,97,0.02,,---,0.02,VWS V14.01,2013-02-24 09:19:00,
2013-02-24 04:20:00,43.6,42.8,29.86,NNW,338,3.0,4.0,97,0.02,,---,0.02,VWS V14.01,2013-02-24 09:20:00,
2013-02-24 04:21:00,43.6,42.8,29.85,NNE,22,3.0,4.0,97,0.01,,---,0.02,VWS V14.01,2013-02-24 09:21:00,
2013-02-24 04:22:00,43.6,42.8,29.85,West,270,2.0,3.0,97,0.01,,---,0.02,VWS V14.01,2013-02-24 09:22:00,
2013-02-24 04:23:00,43.6,42.8,29.85,West,270,2.0,3.0,97,0.01,,---,0.02,VWS V14.01,2013-02-24 09:23:00,
2013-02-24 04:24:00,43.6,42.8,29.85,West,270,0.0,1.0,97,0.01,,---,0.02,VWS V14.01,2013-02-24 09:24:00,
2013-02-24 04:25:00,43.6,42.8,29.85,NNW,338,2.0,3.0,97,0.01,,---,0.02,VWS V14.01,2013-02-24 09:25:00,
2013-02-24 04:26:00,43.6,42.8,29.85,NNE,22,1.0,2.0,97,0.01,,---,0.02,VWS V14.01,2013-02-24 09:26:00,
2013-02-24 04:27:00,43.7,42.9,29.85,WNW,292,1.0,1.0,97,0.01,,---,0.02,VWS V14.01,2013-02-24 09:27:00,
2013-02-24 04:28:00,43.7,42.9,29.85,WSW,248,1.0,2.0,97,0.01,,---,0.02,VWS V14.01,2013-02-24 09:28:00,
2013-02-24 04:29:00,43.7,42.9,29.85,WSW,248,1.0,2.0,97,0.01,,---,0.02,VWS V14.01,2013-02-24 09:29:00,
2013-02-24 04:30:00,43.7,42.9,29.85,WSW,248,0.0,0.0,97,0.01,,---,0.02,VWS V14.01,2013-02-24 09:30:00,
2013-02-24 04:31:00,43.7,42.9,29.85,NW,315,2.0,4.0,97,0.01,,---,0.02,VWS V14.01,2013-02-24 09:31:00,
2013-02-24 04:32:00,43.7,42.9,29.85,West,270,2.0,4.0,97,0.01,,---,0.02,VWS V14.01,2013-02-24 09:32:00,
2013-02-24 04:33:00,43.7,42.9,29.85,West,270,1.0,2.0,97,0.01,,---,0.02,VWS V14.01,2013-02-24 09:33:00,
2013-02-24 04:34:00,43.7,42.9,29.85,West,270,1.0,1.0,97,0.01,,---,0.02,VWS V14.01,2013-02-24 09:34:00,
2013-02-24 04:35:00,43.7,42.9,29.85,West,270,1.0,1.0,97,0.01,,---,0.02,VWS V14.01,2013-02-24 09:35:00,
2013-02-24 04:36:00,43.7,42.9,29.85,West,270,1.0,2.0,97,0.01,,---,0.02,VWS V14.01,2013-02-24 09:36:00,
2013-02-24 04:37:00,43.7,42.9,29.85,West,270,2.0,2.0,97,0.01,,---,0.02,VWS V14.01,2013-02-24 09:37:00,
2013-02-24 04:38:00,43.7,42.9,29.85,WSW,248,2.0,2.0,97,0.01,,---,0.02,VWS V14.01,2013-02-24 09:38:00,
2013-02-24 04:39:00,43.7,42.9,29.85,WNW,292,3.0,3.0,97,0.01,,---,0.02,VWS V14.01,2013-02-24 09:39:00,
2013-02-24 04:40:00,43.7,42.9,29.86,West,270,2.0,3.0,97,0.01,,---,0.02,VWS V14.01,2013-02-24 09:40:00,
2013-02-24 04:41:00,43.7,42.9,29.86,NW,315,2.0,3.0,97,0.01,,---,0.02,VWS V14.01,2013-02-24 09:41:00,
2013-02-24 04:42:00,43.7,42.9,29.86,WNW,292,1.0,2.0,97,0.01,,---,0.02,VWS V14.01,2013-02-24 09:42:00,
2013-02-24 04:43:00,43.7,42.9,29.86,West,270,2.0,3.0,97,0.01,,---,0.02,VWS V14.01,2013-02-24 09:43:00,
2013-02-24 04:44:00,43.8,43.0,29.86,WNW,292,2.0,3.0,97,0.01,,---,0.02,VWS V14.01,2013-02-24 09:44:00,
2013-02-24 04:45:00,43.8,43.0,29.86,West,270,1.0,2.0,97,0.01,,---,0.02,VWS V14.01,2013-02-24 09:45:00,
2013-02-24 04:46:00,43.7,42.9,29.86,West,270,2.0,3.0,97,0.01,,---,0.02,VWS V14.01,2013-02-24 09:46:00,
2013-02-24 04:47:00,43.8,43.0,29.86,WSW,248,1.0,2.0,97,0.01,,---,0.02,VWS V14.01,2013-02-24 09:47:00,
2013-02-24 04:48:00,43.8,43.0,29.86,West,270,1.0,2.0,97,0.01,,---,0.02,VWS V14.01,2013-02-24 09:48:00,
2013-02-24 04:49:00,43.8,43.0,29.86,West,270,1.0,2.0,97,0.01,,---,0.02,VWS V14.01,2013-02-24 09:49:00,
2013-02-24 04:50:00,43.8,43.0,29.86,West,270,0.0,1.0,97,0.01,,---,0.02,VWS V14.01,2013-02-24 09:50:00,
2013-02-24 04:51:00,43.8,43.0,29.86,WNW,292,1.0,2.0,97,0.01,,---,0.02,VWS V14.01,2013-02-24 09:51:00,
2013-02-24 04:52:00,43.8,43.0,29.86,West,270,1.0,1.0,97,0.01,,---,0.02,VWS V14.01,2013-02-24 09:52:00,
2013-02-24 04:53:00,43.8,43.0,29.86,West,270,2.0,3.0,97,0.01,,---,0.02,VWS V14.01,2013-02-24 09:53:00,
2013-02-24 04:54:00,43.8,43.0,29.86,West,270,1.0,2.0,97,0.01,,---,0.02,VWS V14.01,2013-02-24 09:54:00,
2013-02-24 04:55:00,43.8,43.0,29.86,West,270,2.0,2.0,97,0.01,,---,0.02,VWS V14.01,2013-02-24 09:55:00,
2013-02-24 04:56:00,43.8,43.0,29.86,West,270,1.0,1.0,97,0.01,,---,0.02,VWS V14.01,2013-02-24 09:56:00,
2013-02-24 04:57:00,43.8,43.0,29.86,West,270,1.0,2.0,97,0.01,,---,0.02,VWS V14.01,2013-02-24 09:57:00,
2013-02-24 04:58:00,43.9,43.1,29.87,West,270,2.0,2.0,97,0.01,,---,0.02,VWS V14.01,2013-02-24 09:58:00,
2013-02-24 04:59:00,43.9,43.1,29.86,West,270,1.0,1.0,97,0.01,,---,0.02,VWS V14.01,2013-02-24 09:59:00,
2013-02-24 05:00:00,43.9,43.1,29.86,WNW,292,1.0,2.0,97,0.01,,---,0.02,VWS V14.01,2013-02-24 10:00:00,
2013-02-24 05:01:00,43.9,43.1,29.86,WNW,292,0.0,0.0,97,0.01,,---,0.02,VWS V14.01,2013-02-24 10:01:00,
2013-02-24 05:02:00,43.9,43.1,29.86,West,270,1.0,3.0,97,0.01,,---,0.02,VWS V14.01,2013-02-24 10:02:00,
2013-02-24 05:03:00,43.9,43.1,29.86,West,270,1.0,2.0,97,0.01,,---,0.02,VWS V14.01,2013-02-24 10:03:00,
2013-02-24 05:04:00,43.9,43.1,29.86,West,270,1.0,2.0,97,0.01,,---,0.02,VWS V14.01,2013-02-24 10:04:00,
2013-02-24 05:05:00,43.9,43.1,29.86,West,270,1.0,2.0,97,0.01,,---,0.02,VWS V14.01,2013-02-24 10:05:00,
2013-02-24 05:06:00,43.9,43.1,29.86,West,270,0.0,1.0,97,0.01,,---,0.02,VWS V14.01,2013-02-24 10:06:00,
2013-02-24 05:07:00,43.9,43.1,29.86,West,270,0.0,1.0,97,0.00,,---,0.02,VWS V14.01,2013-02-24 10:07:00,
2013-02-24 05:08:00,43.9,43.1,29.86,West,270,0.0,1.0,97,0.00,,---,0.02,VWS V14.01,2013-02-24 10:08:00,
2013-02-24 05:09:00,43.9,43.1,29.86,West,270,1.0,2.0,97,0.00,,---,0.02,VWS V14.01,2013-02-24 10:09:00,
2013-02-24 05:10:00,43.9,43.1,29.86,West,270,2.0,3.0,97,0.00,,---,0.02,VWS V14.01,2013-02-24 10:10:00,
2013-02-24 05:11:00,43.9,43.1,29.86,West,270,2.0,3.0,97,0.00,,---,0.02,VWS V14.01,2013-02-24 10:11:00,
2013-02-24 05:12:00,43.9,43.1,29.86,West,270,3.0,4.0,97,0.00,,---,0.02,VWS V14.01,2013-02-24 10:12:00,
2013-02-24 05:13:00,43.9,43.1,29.87,West,270,2.0,4.0,97,0.00,,---,0.02,VWS V14.01,2013-02-24 10:13:00,
2013-02-24 05:14:00,43.9,43.1,29.87,West,270,2.0,3.0,97,0.00,,---,0.02,VWS V14.01,2013-02-24 10:14:00,
2013-02-24 05:15:00,43.9,43.1,29.87,WNW,292,3.0,5.0,97,0.00,,---,0.02,VWS V14.01,2013-02-24 10:15:00,
2013-02-24 05:16:00,43.9,43.1,29.87,West,270,2.0,3.0,97,0.00,,---,0.02,VWS V14.01,2013-02-24 10:16:00,
2013-02-24 05:17:00,43.9,43.1,29.87,West,270,1.0,2.0,97,0.00,,---,0.02,VWS V14.01,2013-02-24 10:17:00,
2013-02-24 05:18:00,44.0,43.2,29.87,West,270,2.0,4.0,97,0.00,,---,0.02,VWS V14.01,2013-02-24 10:18:00,
2013-02-24 05:19:00,44.0,43.2,29.87,West,270,3.0,4.0,97,0.00,,---,0.02,VWS V14.01,2013-02-24 10:19:00,
2013-02-24 05:20:00,44.0,43.2,29.87,West,270,2.0,2.0,97,0.00,,---,0.02,VWS V14.01,2013-02-24 10:20:00,
2013-02-24 05:21:00,44.0,43.2,29.87,West,270,2.0,2.0,97,0.00,,---,0.02,VWS V14.01,2013-02-24 10:21:00,
2013-02-24 05:22:00,44.0,43.2,29.87,West,270,3.0,4.0,97,0.00,,---,0.02,VWS V14.01,2013-02-24 10:22:00,
2013-02-24 05:23:00,44.0,43.2,29.87,West,270,4.0,6.0,97,0.00,,---,0.02,VWS V14.01,2013-02-24 10:23:00,
2013-02-24 05:24:00,44.0,43.2,29.87,West,270,3.0,4.0,97,0.00,,---,0.02,VWS V14.01,2013-02-24 10:24:00,
2013-02-24 05:25:00,44.0,43.2,29.87,West,270,3.0,5.0,97,0.00,,---,0.02,VWS V14.01,2013-02-24 10:25:00,
2013-02-24 05:26:00,44.1,43.3,29.87,WSW,248,4.0,5.0,97,0.00,,---,0.02,VWS V14.01,2013-02-24 10:26:00,
2013-02-24 05:27:00,44.1,43.3,29.87,WNW,292,4.0,5.0,97,0.00,,---,0.02,VWS V14.01,2013-02-24 10:27:00,
2013-02-24 05:28:00,44.1,43.3,29.87,West,270,4.0,5.0,97,0.00,,---,0.02,VWS V14.01,2013-02-24 10:28:00,
2013-02-24 05:29:00,44.1,43.3,29.87,West,270,4.0,6.0,97,0.00,,---,0.02,VWS V14.01,2013-02-24 10:29:00,
2013-02-24 05:30:00,44.1,43.3,29.87,West,270,5.0,6.0,97,0.00,,---,0.02,VWS V14.01,2013-02-24 10:30:00,
2013-02-24 05:31:00,44.1,43.3,29.87,West,270,3.0,4.0,97,0.00,,---,0.02,VWS V14.01,2013-02-24 10:31:00,
2013-02-24 05:32:00,44.1,43.3,29.87,West,270,4.0,5.0,97,0.00,,---,0.02,VWS V14.01,2013-02-24 10:32:00,
2013-02-24 05:33:00,44.2,43.4,29.87,West,270,3.0,4.0,97,0.00,,---,0.02,VWS V14.01,2013-02-24 10:33:00,
2013-02-24 05:34:00,44.2,43.4,29.87,West,270,3.0,4.0,97,0.00,,---,0.02,VWS V14.01,2013-02-24 10:34:00,
2013-02-24 05:35:00,44.2,43.4,29.87,West,270,4.0,5.0,97,0.00,,---,0.02,VWS V14.01,2013-02-24 10:35:00,
2013-02-24 05:36:00,44.2,43.4,29.88,West,270,3.0,4.0,97,0.00,,---,0.02,VWS V14.01,2013-02-24 10:36:00,
2013-02-24 05:37:00,44.2,43.4,29.88,West,270,4.0,5.0,97,0.00,,---,0.02,VWS V14.01,2013-02-24 10:37:00,
2013-02-24 05:38:00,44.2,43.4,29.88,WNW,292,4.0,5.0,97,0.00,,---,0.02,VWS V14.01,2013-02-24 10:38:00,
2013-02-24 05:39:00,44.2,43.4,29.88,West,270,2.0,3.0,97,0.00,,---,0.02,VWS V14.01,2013-02-24 10:39:00,
2013-02-24 05:40:00,44.2,43.4,29.88,West,270,1.0,3.0,97,0.00,,---,0.02,VWS V14.01,2013-02-24 10:40:00,
2013-02-24 05:41:00,44.2,43.4,29.87,WSW,248,1.0,2.0,97,0.00,,---,0.02,VWS V14.01,2013-02-24 10:41:00,
2013-02-24 05:42:00,44.2,43.4,29.88,West,270,3.0,4.0,97,0.00,,---,0.02,VWS V14.01,2013-02-24 10:42:00,
2013-02-24 05:43:00,44.2,43.4,29.88,West,270,2.0,3.0,97,0.00,,---,0.02,VWS V14.01,2013-02-24 10:43:00,
2013-02-24 05:44:00,44.2,43.4,29.88,West,270,3.0,3.0,97,0.00,,---,0.02,VWS V14.01,2013-02-24 10:44:00,
2013-02-24 05:45:00,44.2,43.4,29.88,West,270,4.0,5.0,97,0.00,,---,0.02,VWS V14.01,2013-02-24 10:45:00,
2013-02-24 05:46:00,44.2,43.4,29.88,WNW,292,3.0,4.0,97,0.00,,---,0.02,VWS V14.01,2013-02-24 10:46:00,
2013-02-24 05:47:00,44.2,43.4,29.88,West,270,2.0,3.0,97,0.00,,---,0.02,VWS V14.01,2013-02-24 10:47:00,
2013-02-24 05:48:00,44.2,43.4,29.88,West,270,2.0,3.0,97,0.00,,---,0.02,VWS V14.01,2013-02-24 10:48:00,
2013-02-24 05:49:00,44.2,43.4,29.88,West,270,4.0,6.0,97,0.00,,---,0.02,VWS V14.01,2013-02-24 10:49:00,
2013-02-24 05:50:00,44.2,43.4,29.88,West,270,4.0,6.0,97,0.00,,---,0.02,VWS V14.01,2013-02-24 10:50:00,
2013-02-24 05:51:00,44.2,43.4,29.89,West,270,1.0,3.0,97,0.00,,---,0.02,VWS V14.01,2013-02-24 10:51:00,
2013-02-24 05:52:00,44.2,43.4,29.88,WSW,248,2.0,3.0,97,0.00,,---,0.02,VWS V14.01,2013-02-24 10:52:00,
2013-02-24 05:53:00,44.2,43.4,29.88,WNW,292,2.0,3.0,97,0.00,,---,0.02,VWS V14.01,2013-02-24 10:53:00,
2013-02-24 05:54:00,44.2,43.4,29.88,WNW,292,1.0,2.0,97,0.00,,---,0.02,VWS V14.01,2013-02-24 10:54:00,
2013-02-24 05:55:00,44.2,43.4,29.89,WNW,292,3.0,4.0,97,0.00,,---,0.02,VWS V14.01,2013-02-24 10:55:00,
2013-02-24 05:56:00,44.2,43.4,29.89,West,270,3.0,4.0,97,0.00,,---,0.02,VWS V14.01,2013-02-24 10:56:00,
2013-02-24 05:57:00,44.2,43.4,29.89,NW,315,1.0,3.0,97,0.00,,---,0.02,VWS V14.01,2013-02-24 10:57:00,
2013-02-24 05:58:00,44.2,43.4,29.89,NNW,338,2.0,3.0,97,0.00,,---,0.02,VWS V14.01,2013-02-24 10:58:00,
2013-02-24 05:59:00,44.2,43.4,29.89,NNW,338,0.0,1.0,97,0.00,,---,0.02,VWS V14.01,2013-02-24 10:59:00,
2013-02-24 06:00:00,44.2,43.4,29.89,WNW,292,2.0,4.0,97,0.00,,---,0.02,VWS V14.01,2013-02-24 11:00:00,
2013-02-24 06:01:00,44.2,43.4,29.90,WNW,292,1.0,2.0,97,0.00,,---,0.02,VWS V14.01,2013-02-24 11:01:00,
2013-02-24 06:02:00,44.2,43.4,29.90,West,270,2.0,5.0,97,0.00,,---,0.02,VWS V14.01,2013-02-24 11:02:00,
2013-02-24 06:03:00,44.2,43.4,29.90,West,270,2.0,4.0,97,0.00,,---,0.02,VWS V14.01,2013-02-24 11:03:00,
2013-02-24 06:04:00,44.2,43.4,29.90,WNW,292,1.0,3.0,97,0.00,,---,0.02,VWS V14.01,2013-02-24 11:04:00,
2013-02-24 06:05:00,44.2,43.4,29.90,West,270,3.0,4.0,97,0.00,,---,0.02,VWS V14.01,2013-02-24 11:05:00,
2013-02-24 06:06:00,44.2,43.4,29.90,West,270,2.0,3.0,97,0.00,,---,0.02,VWS V14.01,2013-02-24 11:06:00,
2013-02-24 06:07:00,44.2,43.4,29.90,WNW,292,2.0,3.0,97,0.00,,---,0.02,VWS V14.01,2013-02-24 11:07:00,
2013-02-24 06:08:00,44.2,43.4,29.90,West,270,4.0,6.0,97,0.00,,---,0.02,VWS V14.01,2013-02-24 11:08:00,
2013-02-24 06:09:00,44.2,43.4,29.90,West,270,3.0,4.0,97,0.00,,---,0.02,VWS V14.01,2013-02-24 11:09:00,
2013-02-24 06:10:00,44.3,43.5,29.90,West,270,2.0,3.0,97,0.00,,---,0.02,VWS V14.01,2013-02-24 11:10:00,
2013-02-24 06:11:00,44.3,43.5,29.90,West,270,2.0,5.0,97,0.00,,---,0.02,VWS V14.01,2013-02-24 11:11:00,
2013-02-24 06:12:00,44.2,43.4,29.90,West,270,4.0,5.0,97,0.00,,---,0.02,VWS V14.01,2013-02-24 11:12:00,
2013-02-24 06:13:00,44.2,43.4,29.90,NW,315,2.0,4.0,97,0.00,,---,0.02,VWS V14.01,2013-02-24 11:13:00,
2013-02-24 06:14:00,44.3,43.5,29.90,West,270,2.0,3.0,97,0.00,,---,0.02,VWS V14.01,2013-02-24 11:14:00,
2013-02-24 06:15:00,44.3,43.5,29.90,West,270,3.0,4.0,97,0.00,,---,0.02,VWS V14.01,2013-02-24 11:15:00,
2013-02-24 06:16:00,44.3,43.5,29.90,West,270,4.0,5.0,97,0.00,,---,0.02,VWS V14.01,2013-02-24 11:16:00,
2013-02-24 06:17:00,44.3,43.5,29.89,West,270,3.0,5.0,97,0.00,,---,0.02,VWS V14.01,2013-02-24 11:17:00,
2013-02-24 06:18:00,44.3,43.5,29.90,WNW,292,5.0,7.0,97,0.00,,---,0.02,VWS V14.01,2013-02-24 11:18:00,
2013-02-24 06:19:00,44.3,43.5,29.90,West,270,4.0,6.0,97,0.00,,---,0.02,VWS V14.01,2013-02-24 11:19:00,
2013-02-24 06:20:00,44.3,43.5,29.90,WNW,292,3.0,6.0,97,0.00,,---,0.02,VWS V14.01,2013-02-24 11:20:00,
2013-02-24 06:21:00,44.3,43.5,29.90,NW,315,0.0,1.0,97,0.00,,---,0.02,VWS V14.01,2013-02-24 11:21:00,
2013-02-24 06:22:00,44.3,43.5,29.90,NW,315,0.0,0.0,97,0.00,,---,0.02,VWS V14.01,2013-02-24 11:22:00,
2013-02-24 06:23:00,44.3,43.5,29.90,NW,315,0.0,2.0,97,0.00,,---,0.02,VWS V14.01,2013-02-24 11:23:00,
2013-02-24 06:25:00,44.3,43.5,29.90,WNW,292,2.0,3.0,97,0.00,,---,0.02,VWS V14.01,2013-02-24 11:25:00,
2013-02-24 06:26:00,44.3,43.5,29.90,WNW,292,3.0,4.0,97,0.00,,---,0.02,VWS V14.01,2013-02-24 11:26:00,
2013-02-24 06:27:00,44.3,43.5,29.90,WNW,292,5.0,7.0,97,0.00,,---,0.02,VWS V14.01,2013-02-24 11:27:00,
2013-02-24 06:28:00,44.3,43.5,29.90,West,270,4.0,4.0,97,0.00,,---,0.02,VWS V14.01,2013-02-24 11:28:00,
2013-02-24 06:29:00,44.3,43.5,29.90,West,270,3.0,4.0,97,0.00,,---,0.02,VWS V14.01,2013-02-24 11:29:00,
2013-02-24 06:30:00,44.3,43.5,29.90,WSW,248,1.0,3.0,97,0.00,,---,0.02,VWS V14.01,2013-02-24 11:30:00,
2013-02-24 06:31:00,44.3,43.5,29.90,West,270,2.0,3.0,97,0.00,,---,0.02,VWS V14.01,2013-02-24 11:31:00,
2013-02-24 06:32:00,44.3,43.5,29.90,WNW,292,3.0,4.0,97,0.00,,---,0.02,VWS V14.01,2013-02-24 11:32:00,
2013-02-24 06:33:00,44.4,43.6,29.90,WNW,292,4.0,5.0,97,0.00,,---,0.02,VWS V14.01,2013-02-24 11:33:00,
2013-02-24 06:34:00,44.3,43.5,29.90,WNW,292,4.0,6.0,97,0.00,,---,0.02,VWS V14.01,2013-02-24 11:34:00,
2013-02-24 06:35:00,44.3,43.5,29.90,WNW,292,3.0,6.0,97,0.00,,---,0.02,VWS V14.01,2013-02-24 11:35:00,
2013-02-24 06:36:00,44.4,43.6,29.90,WNW,292,3.0,5.0,97,0.00,,---,0.02,VWS V14.01,2013-02-24 11:36:00,
2013-02-24 06:37:00,44.4,43.6,29.90,West,270,1.0,1.0,97,0.00,,---,0.02,VWS V14.01,2013-02-24 11:37:00,
2013-02-24 06:38:00,44.3,43.5,29.90,WNW,292,1.0,3.0,97,0.00,,---,0.02,VWS V14.01,2013-02-24 11:38:00,
2013-02-24 06:39:00,44.4,43.6,29.90,West,270,0.0,1.0,97,0.00,,---,0.02,VWS V14.01,2013-02-24 11:39:00,
2013-02-24 06:40:00,44.3,43.5,29.90,West,270,4.0,5.0,97,0.00,,---,0.02,VWS V14.01,2013-02-24 11:40:00,
2013-02-24 06:41:00,44.4,43.6,29.89,West,270,2.0,3.0,97,0.00,,---,0.02,VWS V14.01,2013-02-24 11:41:00,
2013-02-24 06:42:00,44.4,43.6,29.89,West,270,2.0,3.0,97,0.00,,---,0.02,VWS V14.01,2013-02-24 11:42:00,
2013-02-24 06:43:00,44.4,43.6,29.89,West,270,1.0,2.0,97,0.00,,---,0.02,VWS V14.01,2013-02-24 11:43:00,
2013-02-24 06:44:00,44.4,43.6,29.89,West,270,2.0,3.0,97,0.00,,---,0.02,VWS V14.01,2013-02-24 11:44:00,
2013-02-24 06:45:00,44.4,43.6,29.90,NW,315,1.0,2.0,97,0.00,,---,0.02,VWS V14.01,2013-02-24 11:45:00,
2013-02-24 06:46:00,44.4,43.6,29.90,West,270,2.0,3.0,97,0.00,,---,0.02,VWS V14.01,2013-02-24 11:46:00,
2013-02-24 06:47:00,44.4,43.6,29.89,West,270,2.0,2.0,97,0.00,,---,0.02,VWS V14.01,2013-02-24 11:47:00,
2013-02-24 06:48:00,44.4,43.6,29.89,WSW,248,3.0,3.0,97,0.00,,---,0.02,VWS V14.01,2013-02-24 11:48:00,
2013-02-24 06:49:00,44.4,43.6,29.90,WNW,292,1.0,2.0,97,0.00,,---,0.02,VWS V14.01,2013-02-24 11:49:00,
2013-02-24 06:50:00,44.4,43.6,29.90,West,270,2.0,3.0,97,0.00,,---,0.02,VWS V14.01,2013-02-24 11:50:00,
2013-02-24 06:51:00,44.4,43.6,29.90,West,270,2.0,3.0,97,0.00,,---,0.02,VWS V14.01,2013-02-24 11:51:00,
2013-02-24 06:52:00,44.4,43.6,29.90,West,270,2.0,2.0,97,0.00,,---,0.02,VWS V14.01,2013-02-24 11:52:00,
2013-02-24 06:53:00,44.4,43.6,29.90,West,270,1.0,2.0,97,0.00,,---,0.02,VWS V14.01,2013-02-24 11:53:00,
2013-02-24 06:54:00,44.4,43.6,29.90,West,270,2.0,4.0,97,0.00,,---,0.02,VWS V14.01,2013-02-24 11:54:00,
2013-02-24 06:55:00,44.3,43.5,29.90,WNW,292,3.0,5.0,97,0.00,,---,0.02,VWS V14.01,2013-02-24 11:55:00,
2013-02-24 06:56:00,44.3,43.5,29.90,West,270,3.0,4.0,97,0.00,,---,0.02,VWS V14.01,2013-02-24 11:56:00,
2013-02-24 06:57:00,44.4,43.6,29.90,NNW,338,2.0,3.0,97,0.00,,---,0.02,VWS V14.01,2013-02-24 11:57:00,
2013-02-24 06:58:00,44.4,43.6,29.90,WNW,292,1.0,2.0,97,0.00,,---,0.02,VWS V14.01,2013-02-24 11:58:00,
2013-02-24 06:59:00,44.3,43.5,29.90,WNW,292,1.0,1.0,97,0.00,,---,0.02,VWS V14.01,2013-02-24 11:59:00,
2013-02-24 07:00:00,44.3,43.5,29.90,West,270,3.0,5.0,97,0.00,,---,0.02,VWS V14.01,2013-02-24 12:00:00,
2013-02-24 07:01:00,44.3,43.5,29.91,WSW,248,1.0,3.0,97,0.00,,---,0.02,VWS V14.01,2013-02-24 12:01:00,
2013-02-24 07:02:00,44.3,43.5,29.91,West,270,1.0,2.0,97,0.00,,---,0.02,VWS V14.01,2013-02-24 12:02:00,
2013-02-24 07:03:00,44.3,43.5,29.91,WNW,292,2.0,3.0,97,0.00,,---,0.02,VWS V14.01,2013-02-24 12:03:00,
2013-02-24 07:04:00,44.3,43.5,29.91,West,270,1.0,2.0,97,0.00,,---,0.02,VWS V14.01,2013-02-24 12:04:00,
2013-02-24 07:05:00,44.3,43.5,29.91,WNW,292,1.0,3.0,97,0.00,,---,0.02,VWS V14.01,2013-02-24 12:05:00,
2013-02-24 07:06:00,44.3,43.5,29.91,WNW,292,1.0,3.0,97,0.00,,---,0.02,VWS V14.01,2013-02-24 12:06:00,
2013-02-24 07:07:00,44.3,43.5,29.91,WNW,292,1.0,1.0,97,0.00,,---,0.02,VWS V14.01,2013-02-24 12:07:00,
2013-02-24 07:08:00,44.3,43.5,29.91,WNW,292,3.0,4.0,97,0.00,,---,0.02,VWS V14.01,2013-02-24 12:08:00,
2013-02-24 07:09:00,44.3,43.5,29.91,West,270,1.0,1.0,97,0.00,,---,0.02,VWS V14.01,2013-02-24 12:09:00,
2013-02-24 07:10:00,44.3,43.5,29.91,West,270,1.0,2.0,97,0.00,,---,0.02,VWS V14.01,2013-02-24 12:10:00,
2013-02-24 07:11:00,44.3,43.5,29.91,NNE,22,2.0,6.0,97,0.00,,---,0.02,VWS V14.01,2013-02-24 12:11:00,
2013-02-24 07:12:00,44.3,43.5,29.91,WNW,292,4.0,8.0,97,0.00,,---,0.02,VWS V14.01,2013-02-24 12:12:00,
2013-02-24 07:13:00,44.3,43.5,29.91,SW,225,3.0,6.0,97,0.00,,---,0.02,VWS V14.01,2013-02-24 12:13:00,
2013-02-24 07:14:00,44.3,43.5,29.91,West,270,2.0,3.0,97,0.00,,---,0.02,VWS V14.01,2013-02-24 12:14:00,
2013-02-24 07:15:00,44.3,43.5,29.91,NW,315,3.0,5.0,97,0.00,,---,0.02,VWS V14.01,2013-02-24 12:15:00,
2013-02-24 07:16:00,44.3,43.5,29.91,West,270,3.0,4.0,97,0.00,,---,0.02,VWS V14.01,2013-02-24 12:16:00,
2013-02-24 07:17:00,44.3,43.5,29.91,NNW,338,3.0,5.0,97,0.00,,---,0.02,VWS V14.01,2013-02-24 12:17:00,
2013-02-24 07:18:00,44.3,43.5,29.91,WSW,248,2.0,3.0,97,0.00,,---,0.02,VWS V14.01,2013-02-24 12:18:00,
2013-02-24 07:19:00,44.3,43.5,29.91,West,270,2.0,4.0,97,0.00,,---,0.02,VWS V14.01,2013-02-24 12:19:00,
2013-02-24 07:20:00,44.3,43.5,29.91,NW,315,2.0,5.0,97,0.00,,---,0.02,VWS V14.01,2013-02-24 12:20:00,
2013-02-24 07:21:00,44.3,43.5,29.91,WNW,292,1.0,2.0,97,0.00,,---,0.02,VWS V14.01,2013-02-24 12:21:00,
2013-02-24 07:22:00,44.3,43.5,29.91,WNW,292,1.0,1.0,97,0.00,,---,0.02,VWS V14.01,2013-02-24 12:22:00,
2013-02-24 07:23:00,44.3,43.5,29.91,NW,315,2.0,3.0,97,0.00,,---,0.02,VWS V14.01,2013-02-24 12:23:00,
2013-02-24 07:24:00,44.3,43.5,29.91,WNW,292,1.0,2.0,97,0.00,,---,0.02,VWS V14.01,2013-02-24 12:24:00,
2013-02-24 07:25:00,44.3,43.5,29.91,WNW,292,1.0,2.0,97,0.00,,---,0.02,VWS V14.01,2013-02-24 12:25:00,
2013-02-24 07:26:00,44.3,43.5,29.91,WNW,292,2.0,4.0,97,0.00,,---,0.02,VWS V14.01,2013-02-24 12:26:00,
2013-02-24 07:27:00,44.3,43.5,29.91,West,270,1.0,2.0,97,0.00,,---,0.02,VWS V14.01,2013-02-24 12:27:00,
2013-02-24 07:28:00,44.3,43.5,29.91,West,270,1.0,3.0,97,0.00,,---,0.02,VWS V14.01,2013-02-24 12:28:00,
2013-02-24 07:29:00,44.3,43.5,29.91,NNW,338,3.0,5.0,97,0.00,,---,0.02,VWS V14.01,2013-02-24 12:29:00,
2013-02-24 07:30:00,44.3,43.5,29.92,West,270,1.0,2.0,97,0.00,,---,0.02,VWS V14.01,2013-02-24 12:30:00,
2013-02-24 07:31:00,44.4,43.6,29.92,West,270,1.0,2.0,97,0.00,,---,0.02,VWS V14.01,2013-02-24 12:31:00,
2013-02-24 07:32:00,44.3,43.5,29.92,West,270,2.0,5.0,97,0.00,,---,0.02,VWS V14.01,2013-02-24 12:32:00,
2013-02-24 07:33:00,44.4,43.6,29.92,WNW,292,3.0,6.0,97,0.00,,---,0.02,VWS V14.01,2013-02-24 12:33:00,
2013-02-24 07:34:00,44.3,43.5,29.92,West,270,4.0,6.0,97,0.00,,---,0.02,VWS V14.01,2013-02-24 12:34:00,
2013-02-24 07:35:00,44.3,43.5,29.92,West,270,4.0,7.0,97,0.00,,---,0.02,VWS V14.01,2013-02-24 12:35:00,
2013-02-24 07:36:00,44.3,43.5,29.92,West,270,3.0,4.0,97,0.00,,---,0.02,VWS V14.01,2013-02-24 12:36:00,
2013-02-24 07:37:00,44.3,43.5,29.92,West,270,4.0,5.0,97,0.00,,---,0.02,VWS V14.01,2013-02-24 12:37:00,
2013-02-24 07:38:00,44.3,43.5,29.93,WNW,292,4.0,6.0,97,0.00,,---,0.02,VWS V14.01,2013-02-24 12:38:00,
2013-02-24 07:39:00,44.3,43.5,29.93,West,270,5.0,6.0,97,0.00,,---,0.02,VWS V14.01,2013-02-24 12:39:00,
2013-02-24 07:40:00,44.2,43.4,29.93,West,270,4.0,6.0,97,0.00,,---,0.02,VWS V14.01,2013-02-24 12:40:00,
2013-02-24 07:41:00,44.2,43.4,29.93,NW,315,2.0,6.0,97,0.00,,---,0.02,VWS V14.01,2013-02-24 12:41:00,
2013-02-24 07:42:00,44.2,43.4,29.93,West,270,2.0,6.0,97,0.00,,---,0.02,VWS V14.01,2013-02-24 12:42:00,
2013-02-24 07:43:00,44.2,43.4,29.93,WNW,292,3.0,5.0,97,0.00,,---,0.02,VWS V14.01,2013-02-24 12:43:00,
2013-02-24 07:44:00,44.2,43.4,29.93,West,270,3.0,6.0,97,0.00,,---,0.02,VWS V14.01,2013-02-24 12:44:00,
2013-02-24 07:45:00,44.3,43.5,29.93,West,270,3.0,4.0,97,0.00,,---,0.02,VWS V14.01,2013-02-24 12:45:00,
2013-02-24 07:46:00,44.2,43.4,29.93,WNW,292,2.0,4.0,97,0.00,,---,0.02,VWS V14.01,2013-02-24 12:46:00,
2013-02-24 07:47:00,44.2,43.4,29.93,West,270,2.0,4.0,97,0.00,,---,0.02,VWS V14.01,2013-02-24 12:47:00,
2013-02-24 07:48:00,44.3,43.5,29.93,West,270,0.0,1.0,97,0.00,,---,0.02,VWS V14.01,2013-02-24 12:48:00,
2013-02-24 07:49:00,44.3,43.5,29.93,West,270,1.0,2.0,97,0.00,,---,0.02,VWS V14.01,2013-02-24 12:49:00,
2013-02-24 07:50:00,44.3,43.5,29.93,West,270,1.0,3.0,97,0.00,,---,0.02,VWS V14.01,2013-02-24 12:50:00,
2013-02-24 07:51:00,44.3,43.5,29.93,West,270,1.0,2.0,97,0.00,,---,0.02,VWS V14.01,2013-02-24 12:51:00,
2013-02-24 07:52:00,44.3,43.5,29.93,West,270,3.0,6.0,97,0.00,,---,0.02,VWS V14.01,2013-02-24 12:52:00,
2013-02-24 07:53:00,44.3,43.5,29.93,West,270,5.0,7.0,97,0.00,,---,0.02,VWS V14.01,2013-02-24 12:53:00,
2013-02-24 07:54:00,44.3,43.5,29.93,West,270,4.0,5.0,97,0.00,,---,0.02,VWS V14.01,2013-02-24 12:54:00,
2013-02-24 07:55:00,44.3,43.5,29.93,West,270,5.0,6.0,97,0.00,,---,0.02,VWS V14.01,2013-02-24 12:55:00,
2013-02-24 07:56:00,44.3,43.5,29.93,West,270,4.0,6.0,97,0.00,,---,0.02,VWS V14.01,2013-02-24 12:56:00,
2013-02-24 07:57:00,44.3,43.5,29.94,WNW,292,5.0,7.0,97,0.00,,---,0.02,VWS V14.01,2013-02-24 12:57:00,
2013-02-24 07:58:00,44.3,43.5,29.94,West,270,3.0,6.0,97,0.00,,---,0.02,VWS V14.01,2013-02-24 12:58:00,
2013-02-24 07:59:00,44.3,43.5,29.94,West,270,3.0,5.0,97,0.00,,---,0.02,VWS V14.01,2013-02-24 12:59:00,
2013-02-24 08:00:00,44.3,43.5,29.94,WNW,292,3.0,6.0,97,0.00,,---,0.02,VWS V14.01,2013-02-24 13:00:00,
2013-02-24 08:01:00,44.3,43.5,29.94,West,270,4.0,5.0,97,0.00,,---,0.02,VWS V14.01,2013-02-24 13:01:00,
2013-02-24 08:02:00,44.4,43.6,29.94,West,270,5.0,9.0,97,0.00,,---,0.02,VWS V14.01,2013-02-24 13:02:00,
2013-02-24 08:03:00,44.4,43.6,29.94,WNW,292,2.0,2.0,97,0.00,,---,0.02,VWS V14.01,2013-02-24 13:03:00,
2013-02-24 08:04:00,44.4,43.6,29.94,West,270,4.0,6.0,97,0.00,,---,0.02,VWS V14.01,2013-02-24 13:04:00,
2013-02-24 08:05:00,44.4,43.6,29.94,West,270,4.0,5.0,97,0.00,,---,0.02,VWS V14.01,2013-02-24 13:05:00,
2013-02-24 08:06:00,44.4,43.6,29.94,West,270,2.0,4.0,97,0.00,,---,0.02,VWS V14.01,2013-02-24 13:06:00,
2013-02-24 08:07:00,44.5,43.7,29.94,West,270,2.0,3.0,97,0.00,,---,0.02,VWS V14.01,2013-02-24 13:07:00,
2013-02-24 08:08:00,44.5,43.7,29.94,West,270,3.0,4.0,97,0.00,,---,0.02,VWS V14.01,2013-02-24 13:08:00,
2013-02-24 08:09:00,44.5,43.7,29.94,WNW,292,5.0,7.0,97,0.00,,---,0.02,VWS V14.01,2013-02-24 13:09:00,
2013-02-24 08:10:00,44.5,43.7,29.94,WNW,292,4.0,7.0,97,0.00,,---,0.02,VWS V14.01,2013-02-24 13:10:00,
2013-02-24 08:11:00,44.5,43.7,29.95,West,270,4.0,5.0,97,0.00,,---,0.02,VWS V14.01,2013-02-24 13:11:00,
2013-02-24 08:12:00,44.5,43.7,29.95,West,270,4.0,6.0,97,0.00,,---,0.02,VWS V14.01,2013-02-24 13:12:00,
2013-02-24 08:13:00,44.6,43.8,29.95,West,270,4.0,6.0,97,0.00,,---,0.02,VWS V14.01,2013-02-24 13:13:00,
2013-02-24 08:14:00,44.6,43.8,29.95,West,270,5.0,6.0,97,0.00,,---,0.02,VWS V14.01,2013-02-24 13:14:00,
2013-02-24 08:15:00,44.6,43.8,29.95,West,270,4.0,7.0,97,0.00,,---,0.02,VWS V14.01,2013-02-24 13:15:00,
2013-02-24 08:16:00,44.6,43.8,29.95,WSW,248,2.0,5.0,97,0.00,,---,0.02,VWS V14.01,2013-02-24 13:16:00,
2013-02-24 08:17:00,44.7,43.9,29.95,WSW,248,4.0,5.0,97,0.00,,---,0.02,VWS V14.01,2013-02-24 13:17:00,
2013-02-24 08:18:00,44.7,43.9,29.95,West,270,5.0,8.0,97,0.00,,---,0.02,VWS V14.01,2013-02-24 13:18:00,
2013-02-24 08:19:00,44.7,43.9,29.95,WNW,292,5.0,6.0,97,0.00,,---,0.02,VWS V14.01,2013-02-24 13:19:00,
2013-02-24 08:20:00,44.7,43.9,29.95,West,270,4.0,6.0,97,0.00,,---,0.02,VWS V14.01,2013-02-24 13:20:00,
2013-02-24 08:21:00,44.7,43.9,29.95,West,270,4.0,6.0,97,0.00,,---,0.02,VWS V14.01,2013-02-24 13:21:00,
2013-02-24 08:22:00,44.7,43.9,29.96,West,270,3.0,6.0,97,0.00,,---,0.02,VWS V14.01,2013-02-24 13:22:00,
2013-02-24 08:23:00,44.7,43.9,29.96,West,270,4.0,5.0,97,0.00,,---,0.02,VWS V14.01,2013-02-24 13:23:00,
2013-02-24 08:24:00,44.8,44.0,29.96,West,270,2.0,4.0,97,0.00,,---,0.02,VWS V14.01,2013-02-24 13:24:00,
2013-02-24 08:25:00,44.8,44.0,29.96,NNW,338,4.0,7.0,97,0.00,,---,0.02,VWS V14.01,2013-02-24 13:25:00,
2013-02-24 08:26:00,44.8,44.0,29.96,WNW,292,2.0,3.0,97,0.00,,---,0.02,VWS V14.01,2013-02-24 13:26:00,
2013-02-24 08:27:00,44.8,44.0,29.96,North,0,2.0,3.0,97,0.00,,---,0.02,VWS V14.01,2013-02-24 13:27:00,
2013-02-24 08:28:00,44.9,44.1,29.96,WSW,248,0.0,1.0,97,0.00,,---,0.02,VWS V14.01,2013-02-24 13:28:00,
2013-02-24 08:29:00,44.9,44.1,29.96,WNW,292,1.0,2.0,97,0.00,,---,0.02,VWS V14.01,2013-02-24 13:29:00,
2013-02-24 08:30:00,45.0,44.2,29.96,West,270,1.0,3.0,97,0.00,,---,0.02,VWS V14.01,2013-02-24 13:30:00,
2013-02-24 08:31:00,45.0,44.2,29.97,NNW,338,2.0,4.0,97,0.00,,---,0.02,VWS V14.01,2013-02-24 13:31:00,
2013-02-24 08:32:00,45.1,44.3,29.97,West,270,2.0,4.0,97,0.00,,---,0.02,VWS V14.01,2013-02-24 13:32:00,
2013-02-24 08:33:00,45.1,44.3,29.97,WNW,292,3.0,4.0,97,0.00,,---,0.02,VWS V14.01,2013-02-24 13:33:00,
2013-02-24 08:34:00,45.1,44.3,29.97,WNW,292,1.0,3.0,97,0.00,,---,0.02,VWS V14.01,2013-02-24 13:34:00,
2013-02-24 08:35:00,45.1,44.3,29.97,West,270,2.0,3.0,97,0.00,,---,0.02,VWS V14.01,2013-02-24 13:35:00,
2013-02-24 08:36:00,45.2,44.4,29.97,WNW,292,3.0,5.0,97,0.00,,---,0.02,VWS V14.01,2013-02-24 13:36:00,
2013-02-24 08:37:00,45.2,44.4,29.97,West,270,4.0,7.0,97,0.00,,---,0.02,VWS V14.01,2013-02-24 13:37:00,
2013-02-24 08:38:00,45.2,44.4,29.97,WNW,292,3.0,5.0,97,0.00,,---,0.02,VWS V14.01,2013-02-24 13:38:00,
2013-02-24 08:39:00,45.2,44.4,29.97,NNW,338,4.0,7.0,97,0.00,,---,0.02,VWS V14.01,2013-02-24 13:39:00,
2013-02-24 08:40:00,45.2,44.4,29.97,WNW,292,4.0,7.0,97,0.00,,---,0.02,VWS V14.01,2013-02-24 13:40:00,
2013-02-24 08:41:00,45.3,44.5,29.97,WNW,292,1.0,2.0,97,0.00,,---,0.02,VWS V14.01,2013-02-24 13:41:00,
2013-02-24 08:42:00,45.3,44.5,29.97,WNW,292,0.0,1.0,97,0.00,,---,0.02,VWS V14.01,2013-02-24 13:42:00,
2013-02-24 08:43:00,45.4,44.6,29.97,NNE,22,1.0,3.0,97,0.00,,---,0.02,VWS V14.01,2013-02-24 13:43:00,
2013-02-24 08:44:00,45.5,44.7,29.97,West,270,3.0,5.0,97,0.00,,---,0.02,VWS V14.01,2013-02-24 13:44:00,
2013-02-24 08:45:00,45.4,44.6,29.97,NW,315,4.0,6.0,97,0.00,,---,0.02,VWS V14.01,2013-02-24 13:45:00,
2013-02-24 08:46:00,45.4,44.6,29.97,WNW,292,2.0,4.0,97,0.00,,---,0.02,VWS V14.01,2013-02-24 13:46:00,
2013-02-24 08:47:00,45.5,44.7,29.97,WNW,292,3.0,4.0,97,0.00,,---,0.02,VWS V14.01,2013-02-24 13:47:00,
2013-02-24 08:48:00,45.5,44.7,29.97,WNW,292,3.0,5.0,97,0.00,,---,0.02,VWS V14.01,2013-02-24 13:48:00,
2013-02-24 08:49:00,45.5,44.7,29.97,WNW,292,1.0,2.0,97,0.00,,---,0.02,VWS V14.01,2013-02-24 13:49:00,
2013-02-24 08:50:00,45.5,44.7,29.97,WNW,292,1.0,2.0,97,0.00,,---,0.02,VWS V14.01,2013-02-24 13:50:00,
2013-02-24 08:51:00,45.6,44.8,29.97,West,270,0.0,1.0,97,0.00,,---,0.02,VWS V14.01,2013-02-24 13:51:00,
2013-02-24 08:52:00,45.6,44.8,29.97,West,270,1.0,3.0,97,0.00,,---,0.02,VWS V14.01,2013-02-24 13:52:00,
2013-02-24 08:53:00,45.7,44.9,29.97,WNW,292,3.0,5.0,97,0.00,,---,0.02,VWS V14.01,2013-02-24 13:53:00,
2013-02-24 08:54:00,45.8,45.0,29.97,NNW,338,1.0,1.0,97,0.00,,---,0.02,VWS V14.01,2013-02-24 13:54:00,
2013-02-24 08:55:00,45.9,45.1,29.98,NNW,338,1.0,3.0,97,0.00,,---,0.02,VWS V14.01,2013-02-24 13:55:00,
2013-02-24 08:56:00,46.0,45.2,29.98,West,270,2.0,3.0,97,0.00,,---,0.02,VWS V14.01,2013-02-24 13:56:00,
2013-02-24 08:57:00,46.1,45.3,29.98,West,270,2.0,5.0,97,0.00,,---,0.02,VWS V14.01,2013-02-24 13:57:00,
2013-02-24 08:58:00,46.1,45.3,29.98,WNW,292,2.0,3.0,97,0.00,,---,0.02,VWS V14.01,2013-02-24 13:58:00,
2013-02-24 08:59:00,46.2,45.4,29.98,WNW,292,1.0,3.0,97,0.00,,---,0.02,VWS V14.01,2013-02-24 13:59:00,
2013-02-24 09:00:00,46.3,45.5,29.98,NNW,338,3.0,4.0,97,0.00,,---,0.02,VWS V14.01,2013-02-24 14:00:00,
2013-02-24 09:01:00,46.3,45.5,29.98,NNE,22,3.0,6.0,97,0.00,,---,0.02,VWS V14.01,2013-02-24 14:01:00,
2013-02-24 09:02:00,46.4,45.6,29.98,NNW,338,3.0,5.0,97,0.00,,---,0.02,VWS V14.01,2013-02-24 14:02:00,
2013-02-24 09:03:00,46.4,45.3,29.98,NNW,338,3.0,5.0,96,0.00,,---,0.02,VWS V14.01,2013-02-24 14:03:00,
2013-02-24 09:04:00,46.4,45.3,29.98,West,270,1.0,2.0,96,0.00,,---,0.02,VWS V14.01,2013-02-24 14:04:00,
2013-02-24 09:05:00,46.5,45.4,29.98,NNE,22,3.0,4.0,96,0.00,,---,0.02,VWS V14.01,2013-02-24 14:05:00,
2013-02-24 09:06:00,46.6,45.5,29.98,NNE,22,2.0,3.0,96,0.00,,---,0.02,VWS V14.01,2013-02-24 14:06:00,
2013-02-24 09:07:00,46.6,45.5,29.98,NNE,22,3.0,4.0,96,0.00,,---,0.02,VWS V14.01,2013-02-24 14:07:00,
2013-02-24 09:08:00,46.7,45.6,29.98,NE,45,3.0,4.0,96,0.00,,---,0.02,VWS V14.01,2013-02-24 14:08:00,
2013-02-24 09:09:00,46.7,45.6,29.98,WNW,292,2.0,4.0,96,0.00,,---,0.02,VWS V14.01,2013-02-24 14:09:00,
2013-02-24 09:10:00,46.7,45.6,29.98,NNW,338,2.0,4.0,96,0.00,,---,0.02,VWS V14.01,2013-02-24 14:10:00,
2013-02-24 09:11:00,46.9,45.8,29.98,NW,315,1.0,2.0,96,0.00,,---,0.02,VWS V14.01,2013-02-24 14:11:00,
2013-02-24 09:12:00,47.0,45.9,29.98,WNW,292,4.0,7.0,96,0.00,,---,0.02,VWS V14.01,2013-02-24 14:12:00,
2013-02-24 09:13:00,46.9,45.5,29.98,West,270,4.0,5.0,95,0.00,,---,0.02,VWS V14.01,2013-02-24 14:13:00,
2013-02-24 09:14:00,47.0,45.7,29.98,NNW,338,2.0,3.0,95,0.00,,---,0.02,VWS V14.01,2013-02-24 14:14:00,
2013-02-24 09:15:00,47.1,45.7,29.98,NNW,338,2.0,4.0,95,0.00,,---,0.02,VWS V14.01,2013-02-24 14:15:00,
2013-02-24 09:16:00,47.2,45.8,29.98,West,270,1.0,4.0,95,0.00,,---,0.02,VWS V14.01,2013-02-24 14:16:00,
2013-02-24 09:17:00,47.3,45.9,29.98,NW,315,0.0,2.0,95,0.00,,---,0.02,VWS V14.01,2013-02-24 14:17:00,
2013-02-24 09:18:00,47.5,46.1,29.98,North,0,1.0,3.0,95,0.00,,---,0.02,VWS V14.01,2013-02-24 14:18:00,
2013-02-24 09:19:00,47.6,46.2,29.98,West,270,3.0,5.0,95,0.00,,---,0.02,VWS V14.01,2013-02-24 14:19:00,
2013-02-24 09:20:00,47.6,46.0,29.98,West,270,5.0,6.0,94,0.00,,---,0.02,VWS V14.01,2013-02-24 14:20:00,
2013-02-24 09:21:00,47.6,46.0,29.98,NW,315,3.0,5.0,94,0.00,,---,0.02,VWS V14.01,2013-02-24 14:21:00,
2013-02-24 09:22:00,47.7,45.8,29.98,NW,315,3.0,4.0,93,0.00,,---,0.02,VWS V14.01,2013-02-24 14:22:00,
2013-02-24 09:23:00,47.8,45.9,29.98,NNW,338,3.0,4.0,93,0.00,,---,0.02,VWS V14.01,2013-02-24 14:23:00,
2013-02-24 09:24:00,47.9,46.0,29.98,NNW,338,3.0,4.0,93,0.00,,---,0.02,VWS V14.01,2013-02-24 14:24:00,
2013-02-24 09:25:00,47.9,46.0,29.97,NW,315,2.0,3.0,93,0.00,,---,0.02,VWS V14.01,2013-02-24 14:25:00,
2013-02-24 09:26:00,48.0,46.1,29.97,NNE,22,1.0,2.0,93,0.00,,---,0.02,VWS V14.01,2013-02-24 14:26:00,
2013-02-24 09:27:00,48.1,46.2,29.97,NNW,338,3.0,4.0,93,0.00,,---,0.02,VWS V14.01,2013-02-24 14:27:00,
2013-02-24 09:28:00,48.2,46.3,29.97,NNW,338,1.0,3.0,93,0.00,,---,0.02,VWS V14.01,2013-02-24 14:28:00,
2013-02-24 09:29:00,48.2,46.0,29.98,NW,315,3.0,5.0,92,0.00,,---,0.02,VWS V14.01,2013-02-24 14:29:00,
2013-02-24 09:30:00,48.3,46.1,29.97,NW,315,1.0,3.0,92,0.00,,---,0.02,VWS V14.01,2013-02-24 14:30:00,
2013-02-24 09:31:00,48.4,46.2,29.98,West,270,2.0,5.0,92,0.00,,---,0.02,VWS V14.01,2013-02-24 14:31:00,
2013-02-24 09:32:00,48.5,46.0,29.98,WNW,292,2.0,3.0,91,0.00,,---,0.02,VWS V14.01,2013-02-24 14:32:00,
2013-02-24 09:42:00,49.3,46.5,29.98,WNW,292,1.0,3.0,90,0.00,,---,0.02,VWS V14.01,2013-02-24 14:42:00,
2013-02-24 09:43:00,49.6,46.8,29.97,West,279,2.0,2.0,90,0.00,,---,0.02,VWS V14.01,2013-02-24 14:43:00,
2013-02-24 09:44:00,49.7,46.6,29.97,West,279,3.0,4.0,89,0.00,,---,0.02,VWS V14.01,2013-02-24 14:44:00,
2013-02-24 09:45:00,49.8,46.7,29.98,WNW,301,3.0,3.0,89,0.00,,---,0.02,VWS V14.01,2013-02-24 14:45:00,
2013-02-24 09:46:00,49.9,46.8,29.97,NW,315,3.0,5.0,89,0.00,,---,0.02,VWS V14.01,2013-02-24 14:46:00,
2013-02-24 09:47:00,49.9,46.8,29.97,NW,321,2.0,5.0,89,0.00,,---,0.02,VWS V14.01,2013-02-24 14:47:00,
2013-02-24 09:48:00,50.0,46.9,29.97,West,269,1.0,5.0,89,0.00,,---,0.02,VWS V14.01,2013-02-24 14:48:00,
2013-02-24 09:49:00,50.1,47.0,29.97,NE,35,1.0,2.0,89,0.00,,---,0.02,VWS V14.01,2013-02-24 14:49:00,
2013-02-24 09:50:00,50.3,47.2,29.97,West,276,1.0,1.0,89,0.00,,---,0.02,VWS V14.01,2013-02-24 14:50:00,
2013-02-24 09:51:00,50.4,47.0,29.97,West,269,4.0,4.0,88,0.00,,---,0.02,VWS V14.01,2013-02-24 14:51:00,
2013-02-24 09:52:00,50.5,46.8,29.98,WNW,288,3.0,3.0,87,0.00,,---,0.02,VWS V14.01,2013-02-24 14:52:00,
2013-02-24 09:53:00,50.5,46.8,29.98,West,272,3.0,3.0,87,0.00,,---,0.02,VWS V14.01,2013-02-24 14:53:00,
2013-02-24 09:54:00,50.6,46.6,29.98,WNW,290,4.0,4.0,86,0.00,,---,0.02,VWS V14.01,2013-02-24 14:54:00,
2013-02-24 09:57:00,50.9,46.9,29.98,NW,321,2.0,3.0,86,0.00,,---,0.02,VWS V14.01,2013-02-24 14:57:00,
2013-02-24 10:02:00,51.5,46.2,29.98,North,5,6.0,6.0,82,0.00,,---,0.02,VWS V14.01,2013-02-24 15:02:00,
2013-02-24 10:07:00,51.9,46.6,29.98,NNE,16,4.0,4.0,82,0.00,,---,0.02,VWS V14.01,2013-02-24 15:07:00,
2013-02-24 10:12:00,52.4,46.4,29.98,WNW,287,3.0,3.0,80,0.00,,---,0.02,VWS V14.01,2013-02-24 15:12:00,
2013-02-24 10:17:00,53.2,46.9,29.98,NE,36,3.0,5.0,79,0.00,,---,0.02,VWS V14.01,2013-02-24 15:17:00,
2013-02-24 10:22:00,53.5,46.1,29.98,NW,326,3.0,6.0,76,0.00,,---,0.02,VWS V14.01,2013-02-24 15:22:00,
2013-02-24 10:27:00,53.9,45.5,29.98,NNE,13,5.0,5.0,73,0.00,,---,0.02,VWS V14.01,2013-02-24 15:27:00,
2013-02-24 10:32:00,54.1,45.7,29.98,WNW,285,1.0,5.0,73,0.00,,---,0.02,VWS V14.01,2013-02-24 15:32:00,
2013-02-24 10:37:00,54.3,45.1,29.98,NNE,12,3.0,6.0,71,0.00,,---,0.02,VWS V14.01,2013-02-24 15:37:00,
2013-02-24 10:42:00,54.6,44.3,29.98,NE,42,5.0,5.0,68,0.00,,---,0.02,VWS V14.01,2013-02-24 15:42:00,
2013-02-24 10:47:00,54.5,44.9,29.98,NNW,344,2.0,3.0,70,0.00,,---,0.02,VWS V14.01,2013-02-24 15:47:00,
2013-02-24 10:52:00,54.7,44.4,29.99,NE,34,3.0,5.0,68,0.00,,---,0.02,VWS V14.01,2013-02-24 15:52:00,
2013-02-24 10:57:00,55.0,45.8,29.98,NNE,17,3.0,3.0,71,0.00,,---,0.02,VWS V14.01,2013-02-24 15:57:00,
2013-02-24 11:02:00,55.5,45.1,29.98,West,261,2.0,4.0,68,0.00,,---,0.02,VWS V14.01,2013-02-24 16:02:00,
2013-02-24 11:07:00,55.4,44.6,29.98,West,267,8.0,8.0,67,0.00,,---,0.02,VWS V14.01,2013-02-24 16:07:00,
2013-02-24 11:12:00,55.0,43.5,29.99,NNW,344,2.0,7.0,65,0.00,,---,0.02,VWS V14.01,2013-02-24 16:12:00,
2013-02-24 11:17:00,54.7,44.0,29.98,WSW,256,9.0,9.0,67,0.00,,---,0.02,VWS V14.01,2013-02-24 16:17:00,
2013-02-24 11:22:00,55.3,44.5,29.98,NNW,347,4.0,4.0,67,0.00,,---,0.02,VWS V14.01,2013-02-24 16:22:00,
2013-02-24 11:27:00,55.0,43.5,29.98,West,277,5.0,11.0,65,0.00,,---,0.02,VWS V14.01,2013-02-24 16:27:00,
2013-02-24 11:32:00,55.1,44.3,29.98,West,271,4.0,7.0,67,0.00,,---,0.02,VWS V14.01,2013-02-24 16:32:00,
2013-02-24 11:37:00,55.5,44.3,29.98,NNW,342,3.0,4.0,66,0.00,,---,0.02,VWS V14.01,2013-02-24 16:37:00,
2013-02-24 11:42:00,55.7,43.3,29.98,NW,307,3.0,7.0,63,0.00,,---,0.02,VWS V14.01,2013-02-24 16:42:00,
2013-02-24 11:47:00,55.9,43.9,29.97,NNE,19,2.0,9.0,64,0.00,,---,0.02,VWS V14.01,2013-02-24 16:47:00,
2013-02-24 11:52:00,56.1,44.1,29.97,SW,224,2.0,2.0,64,0.00,,---,0.02,VWS V14.01,2013-02-24 16:52:00,
2013-02-24 11:57:00,56.5,44.1,29.97,West,264,6.0,7.0,63,0.00,,---,0.02,VWS V14.01,2013-02-24 16:57:00,
2013-02-24 12:02:00,56.6,43.8,29.97,NE,39,1.0,3.0,62,0.00,,---,0.02,VWS V14.01,2013-02-24 17:02:00,
2013-02-24 12:07:00,56.7,43.0,29.97,West,275,7.0,8.0,60,0.00,,---,0.02,VWS V14.01,2013-02-24 17:07:00,
2013-02-24 12:12:00,56.2,42.5,29.97,WNW,290,5.0,10.0,60,0.00,,---,0.02,VWS V14.01,2013-02-24 17:12:00,
2013-02-24 12:17:00,56.5,42.4,29.97,West,267,3.0,7.0,59,0.00,,---,0.02,VWS V14.01,2013-02-24 17:17:00,
2013-02-24 12:22:00,56.8,42.2,29.97,WNW,295,9.0,9.0,58,0.00,,---,0.02,VWS V14.01,2013-02-24 17:22:00,
2013-02-24 12:27:00,56.9,40.9,29.97,WNW,286,3.0,6.0,55,0.00,,---,0.02,VWS V14.01,2013-02-24 17:27:00,
2013-02-24 12:32:00,57.7,42.1,29.97,NNW,340,3.0,4.0,56,0.00,,---,0.02,VWS V14.01,2013-02-24 17:32:00,
2013-02-24 12:37:00,57.6,42.0,29.97,NNE,31,6.0,8.0,56,0.00,,---,0.02,VWS V14.01,2013-02-24 17:37:00,
2013-02-24 12:42:00,57.8,41.8,29.96,NNE,17,4.0,7.0,55,0.00,,---,0.02,VWS V14.01,2013-02-24 17:42:00,
2013-02-24 12:47:00,58.0,41.5,29.96,WSW,238,4.0,6.0,54,0.00,,---,0.02,VWS V14.01,2013-02-24 17:47:00,
2013-02-24 12:52:00,58.2,40.7,29.96,WSW,256,6.0,6.0,52,0.00,,---,0.02,VWS V14.01,2013-02-24 17:52:00,
2013-02-24 12:57:00,58.3,40.3,29.96,NW,321,2.0,4.0,51,0.00,,---,0.02,VWS V14.01,2013-02-24 17:57:00,
2013-02-24 13:02:00,58.4,40.9,29.96,West,273,6.0,7.0,52,0.00,,---,0.02,VWS V14.01,2013-02-24 18:02:00,
2013-02-24 13:06:00,58.5,41.5,29.96,NNE,16,7.0,7.0,53,0.00,,---,0.02,VWS V14.01,2013-02-24 18:06:00,
2013-02-24 13:12:00,58.6,41.5,29.96,WNW,296,7.0,7.0,53,0.00,,---,0.02,VWS V14.01,2013-02-24 18:12:00,
2013-02-24 13:17:00,59.1,41.0,29.95,NNW,338,1.0,5.0,51,0.00,,---,0.02,VWS V14.01,2013-02-24 18:17:00,
2013-02-24 13:22:00,58.9,40.8,29.95,West,280,9.0,11.0,51,0.00,,---,0.02,VWS V14.01,2013-02-24 18:22:00,
2013-02-24 13:27:00,58.3,40.8,29.95,South,171,1.0,3.0,52,0.00,,---,0.02,VWS V14.01,2013-02-24 18:27:00,
2013-02-24 13:32:00,59.1,41.5,29.95,WSW,249,6.0,6.0,52,0.00,,---,0.02,VWS V14.01,2013-02-24 18:32:00,
2013-02-24 13:36:00,59.2,41.1,29.94,West,277,1.0,3.0,51,0.00,,---,0.02,VWS V14.01,2013-02-24 18:36:00,
2013-02-24 13:41:00,60.1,41.4,29.94,West,271,9.0,11.0,50,0.00,,---,0.02,VWS V14.01,2013-02-24 18:41:00,
2013-02-24 13:46:00,59.5,40.3,29.94,WNW,294,4.0,6.0,49,0.00,,---,0.02,VWS V14.01,2013-02-24 18:46:00,
2013-02-24 13:51:00,59.4,40.8,29.94,WNW,292,3.0,6.0,50,0.00,,---,0.02,VWS V14.01,2013-02-24 18:51:00,
2013-02-24 13:56:00,59.8,41.7,29.93,NW,323,2.0,6.0,51,0.00,,---,0.02,VWS V14.01,2013-02-24 18:56:00,
2013-02-24 14:01:00,60.3,41.1,29.93,NW,315,2.0,4.0,49,0.00,,---,0.02,VWS V14.01,2013-02-24 19:01:00,
2013-02-24 14:06:00,60.1,40.4,29.93,WNW,288,1.0,5.0,48,0.00,,---,0.02,VWS V14.01,2013-02-24 19:06:00,
2013-02-24 14:11:00,60.7,41.5,29.93,WNW,297,3.0,7.0,49,0.00,,---,0.02,VWS V14.01,2013-02-24 19:11:00,
2013-02-24 14:16:00,60.5,41.8,29.93,NW,314,2.0,2.0,50,0.00,,---,0.02,VWS V14.01,2013-02-24 19:16:00,
2013-02-24 14:21:00,60.6,41.4,29.93,NNE,16,4.0,4.0,49,0.00,,---,0.02,VWS V14.01,2013-02-24 19:21:00,
2013-02-24 14:26:00,60.9,41.6,29.93,NNW,327,5.0,5.0,49,0.00,,---,0.02,VWS V14.01,2013-02-24 19:26:00,
2013-02-24 14:31:00,61.0,41.7,29.93,WNW,291,3.0,5.0,49,0.00,,---,0.02,VWS V14.01,2013-02-24 19:31:00,
2013-02-24 14:36:00,61.0,42.2,29.93,West,269,3.0,6.0,50,0.00,,---,0.02,VWS V14.01,2013-02-24 19:36:00,
2013-02-24 14:41:00,60.6,41.4,29.93,NE,42,4.0,6.0,49,0.00,,---,0.02,VWS V14.01,2013-02-24 19:41:00,
2013-02-24 14:46:00,60.9,41.1,29.93,NW,305,3.0,5.0,48,0.00,,---,0.02,VWS V14.01,2013-02-24 19:46:00,
2013-02-24 14:51:00,61.3,40.9,29.93,WNW,295,3.0,5.0,47,0.00,,---,0.02,VWS V14.01,2013-02-24 19:51:00,
2013-02-24 14:56:00,61.4,41.6,29.93,West,268,3.0,3.0,48,0.00,,---,0.02,VWS V14.01,2013-02-24 19:56:00,
2013-02-24 15:01:00,61.1,39.6,29.93,West,273,4.0,8.0,45,0.00,,---,0.02,VWS V14.01,2013-02-24 20:01:00,
2013-02-24 15:06:00,61.0,39.0,29.93,NW,325,2.0,6.0,44,0.00,,---,0.02,VWS V14.01,2013-02-24 20:06:00,
2013-02-24 15:11:00,61.8,38.5,29.93,NNW,346,2.0,4.0,42,0.00,,---,0.02,VWS V14.01,2013-02-24 20:11:00,
2013-02-24 15:16:00,61.9,38.6,29.93,NW,325,5.0,6.0,42,0.00,,---,0.02,VWS V14.01,2013-02-24 20:16:00,
2013-02-24 15:21:00,62.0,37.4,29.93,West,277,2.0,7.0,40,0.00,,---,0.02,VWS V14.01,2013-02-24 20:21:00,
2013-02-24 15:26:00,62.1,37.5,29.93,West,259,11.0,13.0,40,0.00,,---,0.02,VWS V14.01,2013-02-24 20:26:00,
2013-02-24 15:31:00,61.7,37.8,29.93,West,265,5.0,5.0,41,0.00,,---,0.02,VWS V14.01,2013-02-24 20:31:00,
2013-02-24 15:36:00,61.7,37.8,29.93,WNW,286,5.0,6.0,41,0.00,,---,0.02,VWS V14.01,2013-02-24 20:36:00,
2013-02-24 15:41:00,61.9,37.3,29.93,West,268,5.0,8.0,40,0.00,,---,0.02,VWS V14.01,2013-02-24 20:41:00,
2013-02-24 15:46:00,61.9,36.7,29.93,NNW,340,5.0,7.0,39,0.00,,---,0.02,VWS V14.01,2013-02-24 20:46:00,
2013-02-24 15:51:00,62.3,37.7,29.93,West,277,3.0,4.0,40,0.00,,---,0.02,VWS V14.01,2013-02-24 20:51:00,
2013-02-24 15:56:00,62.7,38.0,29.93,WSW,247,5.0,6.0,40,0.00,,---,0.02,VWS V14.01,2013-02-24 20:56:00,
2013-02-24 16:01:00,62.5,37.2,29.93,WNW,286,1.0,2.0,39,0.00,,---,0.02,VWS V14.01,2013-02-24 21:01:00,
2013-02-24 16:06:00,62.7,36.8,29.94,WSW,252,3.0,7.0,38,0.00,,---,0.02,VWS V14.01,2013-02-24 21:06:00,
2013-02-24 16:11:00,63.0,37.0,29.94,NW,315,4.0,8.0,38,0.00,,---,0.02,VWS V14.01,2013-02-24 21:11:00,
2013-02-24 16:16:00,62.9,36.2,29.94,WNW,300,5.0,7.0,37,0.00,,---,0.02,VWS V14.01,2013-02-24 21:16:00,
2013-02-24 16:21:00,62.8,35.5,29.94,West,281,6.0,6.0,36,0.00,,---,0.02,VWS V14.01,2013-02-24 21:21:00,
2013-02-24 16:26:00,62.5,34.5,29.94,West,270,8.0,8.0,35,0.00,,---,0.02,VWS V14.01,2013-02-24 21:26:00,
2013-02-24 16:31:00,62.4,34.4,29.94,NNW,341,4.0,5.0,35,0.00,,---,0.02,VWS V14.01,2013-02-24 21:31:00,
2013-02-24 16:36:00,62.7,35.4,29.94,West,271,3.0,3.0,36,0.00,,---,0.02,VWS V14.01,2013-02-24 21:36:00,
2013-02-24 16:41:00,63.2,35.1,29.94,WNW,300,3.0,4.0,35,0.00,,---,0.02,VWS V14.01,2013-02-24 21:41:00,
2013-02-24 16:46:00,63.5,34.7,29.94,West,260,4.0,5.0,34,0.00,,---,0.02,VWS V14.01,2013-02-24 21:46:00,
2013-02-24 16:51:00,63.4,33.8,29.94,NW,325,4.0,6.0,33,0.00,,---,0.02,VWS V14.01,2013-02-24 21:51:00,
2013-02-24 16:56:00,63.0,32.7,29.94,WNW,283,9.0,9.0,32,0.00,,---,0.02,VWS V14.01,2013-02-24 21:56:00,
2013-02-24 17:01:00,62.7,32.4,29.95,NNW,333,4.0,4.0,32,0.00,,---,0.02,VWS V14.01,2013-02-24 22:01:00,
2013-02-24 17:06:00,62.5,30.7,29.95,NW,311,2.0,2.0,30,0.00,,---,0.02,VWS V14.01,2013-02-24 22:06:00,
2013-02-24 17:11:00,62.6,30.8,29.95,West,267,5.0,6.0,30,0.00,,---,0.02,VWS V14.01,2013-02-24 22:11:00,
2013-02-24 17:16:00,62.2,30.4,29.95,West,259,4.0,4.0,30,0.00,,---,0.02,VWS V14.01,2013-02-24 22:16:00,
2013-02-24 17:21:00,62.4,29.8,29.95,NW,309,2.0,4.0,29,0.00,,---,0.02,VWS V14.01,2013-02-24 22:21:00,
2013-02-24 17:26:00,62.5,30.7,29.95,North,355,4.0,4.0,30,0.00,,---,0.02,VWS V14.01,2013-02-24 22:26:00,
2013-02-24 17:31:00,63.0,31.1,29.95,West,277,1.0,1.0,30,0.00,,---,0.02,VWS V14.01,2013-02-24 22:31:00,
2013-02-24 17:36:00,62.5,30.7,29.96,North,351,2.0,2.0,30,0.00,,---,0.02,VWS V14.01,2013-02-24 22:36:00,
2013-02-24 17:41:00,61.9,30.1,29.96,NNW,335,1.0,1.0,30,0.00,,---,0.02,VWS V14.01,2013-02-24 22:41:00,
2013-02-24 17:46:00,61.4,30.5,29.96,NNW,331,1.0,2.0,31,0.00,,---,0.02,VWS V14.01,2013-02-24 22:46:00,
2013-02-24 17:51:00,60.9,30.1,29.96,North,360,2.0,2.0,31,0.00,,---,0.02,VWS V14.01,2013-02-24 22:51:00,
2013-02-24 17:56:00,60.3,30.3,29.96,NW,322,1.0,1.0,32,0.00,,---,0.02,VWS V14.01,2013-02-24 22:56:00,
2013-02-24 18:01:00,59.6,30.5,29.96,NW,321,0.0,1.0,33,0.00,,---,0.02,VWS V14.01,2013-02-24 23:01:00,
2013-02-24 18:06:00,59.1,30.0,29.97,NW,304,1.0,1.0,33,0.00,,---,0.02,VWS V14.01,2013-02-24 23:06:00,
2013-02-24 18:11:00,58.5,30.2,29.97,NW,304,0.0,0.0,34,0.00,,---,0.02,VWS V14.01,2013-02-24 23:11:00,
2013-02-24 18:16:00,57.9,30.4,29.97,NW,304,0.0,0.0,35,0.00,,---,0.02,VWS V14.01,2013-02-24 23:16:00,
2013-02-24 18:21:00,57.4,30.0,29.97,NW,304,0.0,0.0,35,0.00,,---,0.02,VWS V14.01,2013-02-24 23:21:00,
2013-02-24 18:26:00,56.9,30.2,29.97,NW,304,0.0,0.0,36,0.00,,---,0.02,VWS V14.01,2013-02-24 23:26:00,
2013-02-24 18:31:00,56.3,31.0,29.97,NW,304,0.0,0.0,38,0.00,,---,0.02,VWS V14.01,2013-02-24 23:31:00,
2013-02-24 18:36:00,55.8,30.6,29.98,NW,304,0.0,0.0,38,0.00,,---,0.02,VWS V14.01,2013-02-24 23:36:00,
2013-02-24 18:41:00,55.4,30.2,29.98,NW,304,0.0,0.0,38,0.00,,---,0.02,VWS V14.01,2013-02-24 23:41:00,
2013-02-24 18:46:00,54.8,30.3,29.98,NW,304,0.0,0.0,39,0.00,,---,0.02,VWS V14.01,2013-02-24 23:46:00,
2013-02-24 18:51:00,54.3,30.5,29.98,NW,304,0.0,0.0,40,0.00,,---,0.02,VWS V14.01,2013-02-24 23:51:00,
2013-02-24 18:56:00,53.9,31.4,29.98,NW,304,0.0,0.0,42,0.00,,---,0.02,VWS V14.01,2013-02-24 23:56:00,
2013-02-24 19:01:00,53.4,32.6,29.98,NW,304,0.0,0.0,45,0.00,,---,0.02,VWS V14.01,2013-02-25 00:01:00,
2013-02-24 19:06:00,52.9,32.7,29.99,NW,304,0.0,0.0,46,0.00,,---,0.02,VWS V14.01,2013-02-25 00:06:00,
2013-02-24 19:11:00,52.7,32.0,29.99,NW,304,0.0,0.0,45,0.00,,---,0.02,VWS V14.01,2013-02-25 00:11:00,
2013-02-24 19:16:00,52.4,31.7,29.99,NW,304,0.0,0.0,45,0.00,,---,0.02,VWS V14.01,2013-02-25 00:16:00,
2013-02-24 19:21:00,52.1,32.5,29.99,NW,304,0.0,0.0,47,0.00,,---,0.02,VWS V14.01,2013-02-25 00:21:00,
2013-02-24 19:26:00,51.6,32.6,30.00,NW,304,0.0,0.0,48,0.00,,---,0.02,VWS V14.01,2013-02-25 00:26:00,
2013-02-24 19:31:00,51.3,32.8,30.00,NW,304,0.0,0.0,49,0.00,,---,0.02,VWS V14.01,2013-02-25 00:31:00,
2013-02-24 19:36:00,50.9,34.4,30.00,SSW,196,2.0,2.0,53,0.00,,---,0.02,VWS V14.01,2013-02-25 00:36:00,
2013-02-24 19:41:00,50.4,33.5,30.00,SSW,195,0.0,0.0,52,0.00,,---,0.02,VWS V14.01,2013-02-25 00:41:00,
2013-02-24 19:46:00,50.1,34.1,30.01,SSW,195,0.0,0.0,54,0.00,,---,0.02,VWS V14.01,2013-02-25 00:46:00,
2013-02-24 19:50:00,50.0,32.6,30.01,SSW,195,0.0,0.0,51,0.00,,---,0.02,VWS V14.01,2013-02-25 00:50:00,
2013-02-24 19:55:00,50.7,31.2,30.01,SSW,196,0.0,0.0,47,0.00,,---,0.02,VWS V14.01,2013-02-25 00:55:00,
2013-02-24 20:00:00,51.4,30.8,30.01,SSW,195,0.0,0.0,45,0.00,,---,0.02,VWS V14.01,2013-02-25 01:00:00,
2013-02-24 20:05:00,51.9,31.2,30.02,SSW,195,0.0,0.0,45,0.00,,---,0.02,VWS V14.01,2013-02-25 01:05:00,
2013-02-24 20:10:00,51.8,31.1,30.02,SSW,195,0.0,0.0,45,0.00,,---,0.02,VWS V14.01,2013-02-25 01:10:00,
2013-02-24 20:15:00,51.6,32.0,30.02,SSW,195,0.0,0.0,47,0.00,,---,0.02,VWS V14.01,2013-02-25 01:15:00,
2013-02-24 20:20:00,51.4,30.8,30.03,SSW,195,0.0,0.0,45,0.00,,---,0.02,VWS V14.01,2013-02-25 01:20:00,
2013-02-24 20:25:00,51.3,30.7,30.03,SSW,195,0.0,0.0,45,0.00,,---,0.02,VWS V14.01,2013-02-25 01:25:00,
2013-02-24 20:30:00,51.0,31.5,30.03,SSW,196,0.0,0.0,47,0.00,,---,0.02,VWS V14.01,2013-02-25 01:30:00,
2013-02-24 20:35:00,50.3,31.4,30.03,SSW,195,0.0,0.0,48,0.00,,---,0.02,VWS V14.01,2013-02-25 01:35:00,
2013-02-24 20:40:00,49.8,32.4,30.03,SSW,196,0.0,0.0,51,0.00,,---,0.02,VWS V14.01,2013-02-25 01:40:00,
2013-02-24 20:45:00,49.9,31.0,30.03,SSW,196,0.0,0.0,48,0.00,,---,0.02,VWS V14.01,2013-02-25 01:45:00,
2013-02-24 20:50:00,49.9,31.5,30.03,SSW,195,0.0,0.0,49,0.00,,---,0.02,VWS V14.01,2013-02-25 01:50:00,
2013-02-24 20:55:00,49.3,32.0,30.03,SSW,195,0.0,0.0,51,0.00,,---,0.02,VWS V14.01,2013-02-25 01:55:00,
2013-02-24 21:00:00,48.7,34.2,30.03,SSW,196,0.0,0.0,57,0.00,,---,0.02,VWS V14.01,2013-02-25 02:00:00,
2013-02-24 21:05:00,47.9,33.8,30.03,SSW,196,0.0,0.0,58,0.00,,---,0.02,VWS V14.01,2013-02-25 02:05:00,
2013-02-24 21:10:00,47.1,34.4,30.04,SSW,196,0.0,0.0,61,0.00,,---,0.02,VWS V14.01,2013-02-25 02:10:00,
2013-02-24 21:15:00,47.6,34.0,30.04,NNE,16,3.0,3.0,59,0.00,,---,0.02,VWS V14.01,2013-02-25 02:15:00,
2013-02-24 21:20:00,48.7,31.4,30.04,NNE,14,4.0,4.0,51,0.00,,---,0.02,VWS V14.01,2013-02-25 02:20:00,
2013-02-24 21:25:00,49.3,31.5,30.04,NNE,20,3.0,3.0,50,0.00,,---,0.02,VWS V14.01,2013-02-25 02:25:00,
2013-02-24 21:30:00,49.6,30.7,30.04,NNW,346,3.0,4.0,48,0.00,,---,0.02,VWS V14.01,2013-02-25 02:30:00,
2013-02-24 21:35:00,49.9,30.0,30.04,NNE,26,8.0,8.0,46,0.00,,---,0.02,VWS V14.01,2013-02-25 02:35:00,
2013-02-24 21:40:00,50.8,28.5,30.04,NNE,27,5.0,7.0,42,0.00,,---,0.02,VWS V14.01,2013-02-25 02:40:00,
2013-02-24 21:45:00,51.1,28.2,30.04,NNE,22,6.0,6.0,41,0.00,,---,0.02,VWS V14.01,2013-02-25 02:45:00,
2013-02-24 21:50:00,51.3,27.8,30.04,NNE,32,4.0,5.0,40,0.00,,---,0.02,VWS V14.01,2013-02-25 02:50:00,
2013-02-24 21:55:00,51.3,27.8,30.04,NE,34,3.0,4.0,40,0.00,,---,0.02,VWS V14.01,2013-02-25 02:55:00,
2013-02-24 22:00:00,51.3,27.2,30.05,NE,36,3.0,4.0,39,0.00,,---,0.02,VWS V14.01,2013-02-25 03:00:00,
2013-02-24 22:05:00,51.2,27.1,30.04,NNE,28,4.0,4.0,39,0.00,,---,0.02,VWS V14.01,2013-02-25 03:05:00,
2013-02-24 22:10:00,51.0,26.9,30.05,NNE,24,3.0,4.0,39,0.00,,---,0.02,VWS V14.01,2013-02-25 03:10:00,
2013-02-24 22:15:00,50.8,27.4,30.05,NNE,27,2.0,2.0,40,0.00,,---,0.02,VWS V14.01,2013-02-25 03:15:00,
2013-02-24 22:20:00,50.6,27.2,30.05,NNE,27,0.0,1.0,40,0.00,,---,0.02,VWS V14.01,2013-02-25 03:20:00,
2013-02-24 22:25:00,50.3,26.9,30.05,NNE,28,1.0,1.0,40,0.00,,---,0.02,VWS V14.01,2013-02-25 03:25:00,
2013-02-24 22:30:00,50.1,27.3,30.05,NNE,25,1.0,1.0,41,0.00,,---,0.02,VWS V14.01,2013-02-25 03:30:00,
2013-02-24 22:35:00,49.9,27.1,30.05,NNE,23,1.0,1.0,41,0.00,,---,0.02,VWS V14.01,2013-02-25 03:35:00,
2013-02-24 22:40:00,49.8,27.1,30.05,NNE,23,3.0,3.0,41,0.00,,---,0.02,VWS V14.01,2013-02-25 03:40:00,
2013-02-24 22:45:00,49.8,27.6,30.06,NNE,25,3.0,3.0,42,0.00,,---,0.02,VWS V14.01,2013-02-25 03:45:00,
2013-02-24 22:50:00,49.8,27.6,30.06,NNE,25,3.0,4.0,42,0.00,,---,0.02,VWS V14.01,2013-02-25 03:50:00,
2013-02-24 22:55:00,49.6,28.0,30.06,NNE,16,2.0,2.0,43,0.00,,---,0.02,VWS V14.01,2013-02-25 03:55:00,
2013-02-24 23:00:00,49.3,27.8,30.06,NNE,28,1.0,1.0,43,0.00,,---,0.02,VWS V14.01,2013-02-25 04:00:00,
2013-02-24 23:05:00,49.0,27.5,30.06,NE,34,2.0,2.0,43,0.00,,---,0.02,VWS V14.01,2013-02-25 04:05:00,
2013-02-24 23:10:00,48.9,28.0,30.07,NNE,33,1.0,2.0,44,0.00,,---,0.02,VWS V14.01,2013-02-25 04:10:00,
2013-02-24 23:15:00,48.7,27.8,30.07,NNE,33,1.0,1.0,44,0.00,,---,0.02,VWS V14.01,2013-02-25 04:15:00,
2013-02-24 23:20:00,48.5,27.6,30.07,NNE,33,1.0,1.0,44,0.00,,---,0.02,VWS V14.01,2013-02-25 04:20:00,
2013-02-24 23:25:00,48.1,27.8,30.07,NNE,33,1.0,1.0,45,0.00,,---,0.02,VWS V14.01,2013-02-25 04:25:00,
2013-02-24 23:30:00,47.9,27.6,30.07,NNE,33,2.0,2.0,45,0.00,,---,0.02,VWS V14.01,2013-02-25 04:30:00,
2013-02-24 23:35:00,47.9,27.6,30.07,NNE,26,3.0,3.0,45,0.00,,---,0.02,VWS V14.01,2013-02-25 04:35:00,
2013-02-24 23:40:00,48.0,27.7,30.08,NE,42,2.0,2.0,45,0.00,,---,0.02,VWS V14.01,2013-02-25 04:40:00,
2013-02-24 23:45:00,47.9,27.6,30.08,NE,47,6.0,6.0,45,0.00,,---,0.02,VWS V14.01,2013-02-25 04:45:00,
2013-02-24 23:50:00,48.0,27.7,30.08,NE,38,3.0,3.0,45,0.00,,---,0.02,VWS V14.01,2013-02-25 04:50:00,
2013-02-24 23:55:00,48.0,27.7,30.08,NE,42,3.0,4.0,45,0.00,,---,0.02,VWS V14.01,2013-02-25 04:55:00,